| time (UTC) | temp F | wind direction | speed MPH | gust MPH | rain 1hr in | rain 24hr in | rain mn in | humidity % | barometer mb |
| 20260504174107 | 72 | 167 | 5.0 | 16.0 | 0.00 | 0.00 | 0.00 | 42 | 1009.6 |
| 20260504174008 | 72 | 224 | 5.0 | 16.0 | 0.00 | 0.00 | 0.00 | 42 | 1009.6 |
| 20260504173948 | 72 | 188 | 6.0 | 16.0 | 0.00 | 0.00 | 0.00 | 44 | 1009.7 |
| 20260504173936 | 72 | 213 | 5.0 | 16.0 | 0.00 | 0.00 | 0.00 | 40 | 1009.6 |
| 20260504173817 | 72 | 252 | 6.0 | 16.0 | 0.00 | 0.00 | 0.00 | 40 | 1009.6 |
| 20260504173627 | 72 | 200 | 8.0 | 16.0 | 0.00 | 0.00 | 0.00 | 42 | 1009.7 |
| 20260504173619 | 72 | 253 | 7.0 | 16.0 | 0.00 | 0.00 | 0.00 | 44 | 1009.6 |
| 20260504173403 | 72 | 241 | 8.0 | 16.0 | 0.00 | 0.00 | 0.00 | 45 | 1009.7 |
| 20260504173303 | 72 | 155 | 8.0 | 16.0 | 0.00 | 0.00 | 0.00 | 42 | 1009.8 |
| 20260504173204 | 71 | 172 | 7.0 | 16.0 | 0.00 | 0.00 | 0.00 | 40 | 1009.7 |
| 20260504173100 | 71 | 182 | 7.0 | 16.0 | 0.00 | 0.00 | 0.00 | 41 | 1009.7 |
| 20260504173001 | 72 | 105 | 7.0 | 16.0 | 0.00 | 0.00 | 0.00 | 43 | 1009.7 |
| 20260504172901 | 72 | 173 | 6.0 | 16.0 | 0.00 | 0.00 | 0.00 | 40 | 1009.7 |
| 20260504172759 | 72 | 186 | 6.0 | 16.0 | 0.00 | 0.00 | 0.00 | 41 | 1009.8 |
| 20260504172659 | 72 | 163 | 6.0 | 16.0 | 0.00 | 0.00 | 0.00 | 42 | 1009.7 |
| 20260504172558 | 72 | 148 | 6.0 | 16.0 | 0.00 | 0.00 | 0.00 | 41 | 1009.7 |
| 20260504172542 | 71 | 185 | 6.0 | 15.0 | 0.00 | 0.00 | 0.00 | 47 | 1009.9 |
| 20260504172531 | 72 | 138 | 6.0 | 16.0 | 0.00 | 0.00 | 0.00 | 42 | 1009.8 |
| 20260504172412 | 71 | 171 | 6.0 | 15.0 | 0.00 | 0.00 | 0.00 | 41 | 1009.8 |
| 20260504172155 | 71 | 225 | 6.0 | 15.0 | 0.00 | 0.00 | 0.00 | 46 | 1009.8 |
| 20260504172055 | 71 | 325 | 7.0 | 15.0 | 0.00 | 0.00 | 0.00 | 49 | 1009.8 |
| 20260504171955 | 71 | 264 | 8.0 | 17.0 | 0.00 | 0.00 | 0.00 | 41 | 1009.8 |
| 20260504171855 | 71 | 280 | 8.0 | 17.0 | 0.00 | 0.00 | 0.00 | 41 | 1009.9 |
| 20260504171755 | 71 | 249 | 8.0 | 17.0 | 0.00 | 0.00 | 0.00 | 40 | 1009.9 |
| 20260504171655 | 71 | 236 | 8.0 | 17.0 | 0.00 | 0.00 | 0.00 | 40 | 1009.9 |
| 20260504171555 | 71 | 194 | 8.0 | 17.0 | 0.00 | 0.00 | 0.00 | 42 | 1010.0 |
| 20260504171452 | 71 | 194 | 8.0 | 17.0 | 0.00 | 0.00 | 0.00 | 41 | 1010.0 |
| 20260504171416 | 71 | 157 | 8.0 | 17.0 | 0.00 | 0.00 | 0.00 | 42 | 1009.9 |
| 20260504171408 | 71 | 213 | 8.0 | 17.0 | 0.00 | 0.00 | 0.00 | 42 | 1010.0 |
| 20260504171152 | 71 | 158 | 8.0 | 17.0 | 0.00 | 0.00 | 0.00 | 43 | 1009.9 |
| 20260504171051 | 71 | 156 | 8.0 | 17.0 | 0.00 | 0.00 | 0.00 | 41 | 1009.9 |
| 20260504170951 | 71 | 160 | 7.0 | 17.0 | 0.00 | 0.00 | 0.00 | 43 | 1009.9 |
| 20260504170851 | 71 | 128 | 8.0 | 17.0 | 0.00 | 0.00 | 0.00 | 42 | 1009.9 |
| 20260504170752 | 71 | 204 | 8.0 | 17.0 | 0.00 | 0.00 | 0.00 | 40 | 1010.0 |
| 20260504170648 | 71 | 190 | 8.0 | 17.0 | 0.00 | 0.00 | 0.00 | 39 | 1010.1 |
| 20260504170548 | 71 | 184 | 7.0 | 17.0 | 0.00 | 0.00 | 0.00 | 41 | 1010.1 |
| 20260504170448 | 71 | 223 | 7.0 | 17.0 | 0.00 | 0.00 | 0.00 | 42 | 1010.1 |
| 20260504170347 | 71 | 194 | 7.0 | 17.0 | 0.00 | 0.00 | 0.00 | 43 | 1010.2 |
| 20260504170247 | 71 | 173 | 6.0 | 17.0 | 0.00 | 0.00 | 0.00 | 44 | 1010.2 |
| 20260504170148 | 71 | 218 | 6.0 | 17.0 | 0.00 | 0.00 | 0.00 | 41 | 1010.2 |
| 20260504160419 | 68 | 165 | 7.0 | 15.0 | 0.00 | 0.00 | 0.00 | 46 | 1011.1 |
| 20260504160320 | 68 | 171 | 7.0 | 15.0 | 0.00 | 0.00 | 0.00 | 44 | 1011.1 |
| 20260504160215 | 68 | 227 | 8.0 | 15.0 | 0.00 | 0.00 | 0.00 | 45 | 1011.0 |
| 20260504160116 | 68 | 240 | 8.0 | 15.0 | 0.00 | 0.00 | 0.00 | 42 | 1011.1 |
| 20260504150751 | 66 | 199 | 6.0 | 13.0 | 0.00 | 0.00 | 0.00 | 42 | 1011.6 |
| 20260504150652 | 66 | 178 | 6.0 | 13.0 | 0.00 | 0.00 | 0.00 | 44 | 1011.6 |
| 20260504150548 | 66 | 197 | 6.0 | 13.0 | 0.00 | 0.00 | 0.00 | 45 | 1011.6 |
| 20260504150446 | 66 | 144 | 6.0 | 13.0 | 0.00 | 0.00 | 0.00 | 47 | 1011.6 |
| 20260504150346 | 65 | 165 | 6.0 | 13.0 | 0.00 | 0.00 | 0.00 | 45 | 1011.6 |
| 20260504150311 | 65 | 128 | 6.0 | 13.0 | 0.00 | 0.00 | 0.00 | 45 | 1011.6 |
| 20260504150302 | 65 | 164 | 6.0 | 13.0 | 0.00 | 0.00 | 0.00 | 44 | 1011.6 |
| 20260504141323 | 61 | 190 | 3.0 | 12.0 | 0.00 | 0.00 | 0.00 | 49 | 1012.0 |
| 20260504141223 | 61 | 207 | 2.0 | 9.0 | 0.00 | 0.00 | 0.00 | 50 | 1012.0 |
| 20260504141123 | 61 | 193 | 2.0 | 6.0 | 0.00 | 0.00 | 0.00 | 51 | 1012.1 |
| 20260504141024 | 61 | 156 | 2.0 | 5.0 | 0.00 | 0.00 | 0.00 | 50 | 1012.0 |
| 20260504140920 | 60 | 156 | 2.0 | 5.0 | 0.00 | 0.00 | 0.00 | 51 | 1012.1 |
| 20260504140818 | 60 | 155 | 2.0 | 5.0 | 0.00 | 0.00 | 0.00 | 54 | 1012.1 |
| 20260504140719 | 60 | 150 | 2.0 | 5.0 | 0.00 | 0.00 | 0.00 | 53 | 1012.1 |
| 20260504140619 | 60 | 150 | 2.0 | 5.0 | 0.00 | 0.00 | 0.00 | 52 | 1012.1 |
| 20260504140519 | 60 | 150 | 2.0 | 5.0 | 0.00 | 0.00 | 0.00 | 53 | 1012.1 |
| 20260504140419 | 60 | 150 | 2.0 | 5.0 | 0.00 | 0.00 | 0.00 | 52 | 1012.2 |
| 20260504140318 | 60 | 151 | 2.0 | 5.0 | 0.00 | 0.00 | 0.00 | 53 | 1012.1 |
| 20260504140259 | 59 | 152 | 2.0 | 5.0 | 0.00 | 0.00 | 0.00 | 53 | 1012.1 |
| 20260504140249 | 59 | 152 | 2.0 | 5.0 | 0.00 | 0.00 | 0.00 | 54 | 1012.1 |
| 20260504140129 | 59 | 152 | 2.0 | 5.0 | 0.00 | 0.00 | 0.00 | 54 | 1012.2 |
| 20260504130751 | 53 | 220 | 1.0 | 3.0 | 0.00 | 0.00 | 0.00 | 61 | 1012.6 |
| 20260504130651 | 53 | 212 | 1.0 | 5.0 | 0.00 | 0.00 | 0.00 | 61 | 1012.6 |
| 20260504130552 | 53 | 205 | 1.0 | 5.0 | 0.00 | 0.00 | 0.00 | 60 | 1012.6 |
| 20260504130510 | 53 | 205 | 1.0 | 5.0 | 0.00 | 0.00 | 0.00 | 62 | 1012.6 |
| 20260504130502 | 53 | 205 | 1.0 | 5.0 | 0.00 | 0.00 | 0.00 | 61 | 1012.7 |
| 20260504130247 | 53 | 205 | 1.0 | 5.0 | 0.00 | 0.00 | 0.00 | 61 | 1012.6 |
| 20260504130148 | 52 | 205 | 1.0 | 5.0 | 0.00 | 0.00 | 0.00 | 63 | 1012.6 |
| 20260504120137 | 45 | 207 | 0.0 | 0.0 | 0.00 | 0.00 | 0.00 | 86 | 1012.8 |
| 20260504120132 | 44 | 207 | 0.0 | 0.0 | 0.00 | 0.00 | 0.00 | 86 | 1012.8 |
| 20260504120128 | 45 | 207 | 0.0 | 0.0 | 0.00 | 0.00 | 0.00 | 86 | 1012.8 |
| 20260504120122 | 45 | 207 | 0.0 | 0.0 | 0.00 | 0.00 | 0.00 | 86 | 1012.8 |
| 20260504120108 | 45 | 207 | 0.0 | 0.0 | 0.00 | 0.00 | 0.00 | 86 | 1012.9 |
| 20260504110651 | 36 | 209 | 0.0 | 1.0 | 0.00 | 0.00 | 0.00 | 83 | 1012.8 |
| 20260504110550 | 36 | 209 | 0.0 | 1.0 | 0.00 | 0.00 | 0.00 | 83 | 1012.8 |
| 20260504110452 | 35 | 209 | 0.0 | 1.0 | 0.00 | 0.00 | 0.00 | 83 | 1012.7 |
| 20260504110432 | 35 | 207 | 0.0 | 1.0 | 0.00 | 0.00 | 0.00 | 84 | 1012.8 |
| 20260504110421 | 35 | 209 | 0.0 | 1.0 | 0.00 | 0.00 | 0.00 | 83 | 1012.8 |
| 20260504110302 | 35 | 209 | 0.0 | 1.0 | 0.00 | 0.00 | 0.00 | 84 | 1012.8 |
| 20260504110109 | 35 | 207 | 0.0 | 1.0 | 0.00 | 0.00 | 0.00 | 84 | 1012.8 |
| 20260504100539 | 33 | 201 | 0.0 | 2.0 | 0.00 | 0.00 | 0.00 | 86 | 1013.0 |
| 20260504100436 | 33 | 201 | 0.0 | 2.0 | 0.00 | 0.00 | 0.00 | 86 | 1013.0 |
| 20260504100337 | 33 | 201 | 0.0 | 3.0 | 0.00 | 0.00 | 0.00 | 86 | 1013.0 |
| 20260504100236 | 33 | 201 | 0.0 | 3.0 | 0.00 | 0.00 | 0.00 | 86 | 1013.0 |
| 20260504100135 | 33 | 201 | 0.0 | 3.0 | 0.00 | 0.00 | 0.00 | 86 | 1013.0 |
| 20260504082005 | 34 | 220 | 0.0 | 2.0 | 0.00 | 0.00 | 0.00 | 87 | 1013.1 |
| 20260504081859 | 34 | 220 | 0.0 | 1.0 | 0.00 | 0.00 | 0.00 | 87 | 1013.2 |
| 20260504081759 | 34 | 220 | 0.0 | 0.0 | 0.00 | 0.00 | 0.00 | 87 | 1013.2 |
| 20260504081731 | 34 | 220 | 0.0 | 0.0 | 0.00 | 0.00 | 0.00 | 87 | 1013.2 |
| 20260504081721 | 34 | 220 | 0.0 | 0.0 | 0.00 | 0.00 | 0.00 | 87 | 1013.2 |
| 20260504081603 | 34 | 220 | 0.0 | 0.0 | 0.00 | 0.00 | 0.00 | 87 | 1013.2 |
| 20260504081347 | 34 | 220 | 0.0 | 0.0 | 0.00 | 0.00 | 0.00 | 87 | 1013.2 |
| 20260504081240 | 35 | 220 | 0.0 | 2.0 | 0.00 | 0.00 | 0.00 | 87 | 1013.2 |
| 20260504081216 | 34 | 220 | 0.0 | 2.0 | 0.00 | 0.00 | 0.00 | 87 | 1013.2 |
| 20260504081207 | 34 | 220 | 0.0 | 2.0 | 0.00 | 0.00 | 0.00 | 87 | 1013.2 |
| 20260504081047 | 34 | 220 | 0.0 | 2.0 | 0.00 | 0.00 | 0.00 | 87 | 1013.2 |
| 20260504080826 | 34 | 220 | 0.0 | 2.0 | 0.00 | 0.00 | 0.00 | 87 | 1013.2 |
| 20260504080727 | 34 | 220 | 0.0 | 2.0 | 0.00 | 0.00 | 0.00 | 87 | 1013.2 |
| 20260504080643 | 34 | 220 | 0.0 | 2.0 | 0.00 | 0.00 | 0.00 | 87 | 1013.2 |
| 20260504080635 | 34 | 220 | 0.0 | 2.0 | 0.00 | 0.00 | 0.00 | 87 | 1013.2 |
| 20260504080414 | 34 | 220 | 0.0 | 2.0 | 0.00 | 0.00 | 0.00 | 87 | 1013.2 |
| 20260504080315 | 34 | 220 | 0.0 | 2.0 | 0.00 | 0.00 | 0.00 | 87 | 1013.1 |
| 20260504080209 | 34 | 220 | 1.0 | 2.0 | 0.00 | 0.00 | 0.00 | 87 | 1013.1 |
| 20260504080109 | 34 | 220 | 1.0 | 2.0 | 0.00 | 0.00 | 0.00 | 87 | 1013.1 |
| 20260504070321 | 36 | 220 | 2.0 | 3.0 | 0.00 | 0.00 | 0.00 | 87 | 1013.1 |
| 20260504070221 | 36 | 220 | 2.0 | 3.0 | 0.00 | 0.00 | 0.00 | 87 | 1013.1 |
| 20260504070115 | 36 | 220 | 2.0 | 3.0 | 0.00 | 0.00 | 0.00 | 87 | 1013.1 |
| 20260504060242 | 37 | 229 | 1.0 | 3.0 | 0.00 | 0.00 | 0.00 | 83 | 1013.0 |
| 20260504050751 | 40 | 230 | 3.0 | 5.0 | 0.00 | 0.00 | 0.00 | 78 | 1013.1 |
| 20260504050707 | 40 | 230 | 3.0 | 5.0 | 0.00 | 0.00 | 0.00 | 78 | 1013.1 |
| 20260504050701 | 40 | 230 | 3.0 | 5.0 | 0.00 | 0.00 | 0.00 | 78 | 1013.1 |
| 20260504050445 | 41 | 230 | 3.0 | 5.0 | 0.00 | 0.00 | 0.00 | 78 | 1013.2 |
| 20260504050339 | 41 | 229 | 3.0 | 5.0 | 0.00 | 0.00 | 0.00 | 78 | 1013.2 |
| 20260504050239 | 41 | 240 | 2.0 | 5.0 | 0.00 | 0.00 | 0.00 | 78 | 1013.1 |
| 20260504050133 | 41 | 240 | 2.0 | 5.0 | 0.00 | 0.00 | 0.00 | 78 | 1013.2 |
| 20260504045926 | 41 | 240 | 2.0 | 5.0 | 0.00 | 0.00 | 0.00 | 78 | 1013.2 |
| 20260504045906 | 41 | 240 | 2.0 | 5.0 | 0.00 | 0.00 | 0.00 | 77 | 1013.2 |
| 20260504045901 | 41 | 242 | 2.0 | 4.0 | 0.00 | 0.00 | 0.00 | 76 | 1013.2 |
| 20260504045851 | 41 | 240 | 2.0 | 5.0 | 0.00 | 0.00 | 0.00 | 77 | 1013.2 |
| 20260504045514 | 41 | 242 | 2.0 | 4.0 | 0.00 | 0.00 | 0.00 | 76 | 1013.2 |
| 20260504045415 | 41 | 242 | 2.0 | 4.0 | 0.00 | 0.00 | 0.00 | 76 | 1013.2 |
| 20260504045309 | 42 | 242 | 2.0 | 4.0 | 0.00 | 0.00 | 0.00 | 76 | 1013.2 |
| 20260504045227 | 42 | 242 | 2.0 | 4.0 | 0.00 | 0.00 | 0.00 | 75 | 1013.2 |
| 20260504045219 | 42 | 242 | 2.0 | 4.0 | 0.00 | 0.00 | 0.00 | 76 | 1013.2 |
| 20260504045003 | 42 | 242 | 2.0 | 4.0 | 0.00 | 0.00 | 0.00 | 75 | 1013.1 |
| 20260504044856 | 42 | 242 | 3.0 | 4.0 | 0.00 | 0.00 | 0.00 | 74 | 1013.1 |
| 20260504044757 | 42 | 242 | 3.0 | 4.0 | 0.00 | 0.00 | 0.00 | 74 | 1013.1 |
| 20260504044650 | 42 | 242 | 3.0 | 4.0 | 0.00 | 0.00 | 0.00 | 74 | 1013.2 |
| 20260504044551 | 42 | 242 | 3.0 | 4.0 | 0.00 | 0.00 | 0.00 | 74 | 1013.2 |
| 20260504044445 | 42 | 242 | 3.0 | 4.0 | 0.00 | 0.00 | 0.00 | 74 | 1013.2 |
| 20260504044345 | 42 | 242 | 3.0 | 4.0 | 0.00 | 0.00 | 0.00 | 73 | 1013.2 |
| 20260504044239 | 42 | 242 | 3.0 | 4.0 | 0.00 | 0.00 | 0.00 | 73 | 1013.2 |
| 20260504044139 | 42 | 242 | 3.0 | 4.0 | 0.00 | 0.00 | 0.00 | 73 | 1013.2 |
| 20260504044056 | 42 | 242 | 3.0 | 4.0 | 0.00 | 0.00 | 0.00 | 73 | 1013.2 |
| 20260504044047 | 42 | 242 | 3.0 | 4.0 | 0.00 | 0.00 | 0.00 | 73 | 1013.3 |
| 20260504043828 | 43 | 242 | 2.0 | 4.0 | 0.00 | 0.00 | 0.00 | 72 | 1013.2 |
| 20260504043727 | 43 | 242 | 2.0 | 4.0 | 0.00 | 0.00 | 0.00 | 72 | 1013.2 |
| 20260504043620 | 43 | 242 | 2.0 | 4.0 | 0.00 | 0.00 | 0.00 | 72 | 1013.1 |
| 20260504043521 | 43 | 242 | 2.0 | 4.0 | 0.00 | 0.00 | 0.00 | 72 | 1013.2 |
| 20260504043416 | 43 | 242 | 2.0 | 4.0 | 0.00 | 0.00 | 0.00 | 72 | 1013.1 |
| 20260504043315 | 43 | 242 | 2.0 | 4.0 | 0.00 | 0.00 | 0.00 | 72 | 1013.1 |
| 20260504043210 | 43 | 242 | 2.0 | 4.0 | 0.00 | 0.00 | 0.00 | 72 | 1013.1 |
| 20260504043126 | 43 | 242 | 1.0 | 3.0 | 0.00 | 0.00 | 0.00 | 73 | 1013.1 |
| 20260504043119 | 43 | 242 | 1.0 | 3.0 | 0.00 | 0.00 | 0.00 | 73 | 1013.1 |
| 20260504042903 | 43 | 242 | 1.0 | 3.0 | 0.00 | 0.00 | 0.00 | 73 | 1013.1 |
| 20260504042757 | 43 | 242 | 1.0 | 2.0 | 0.00 | 0.00 | 0.00 | 73 | 1013.1 |
| 20260504042656 | 43 | 242 | 1.0 | 6.0 | 0.00 | 0.00 | 0.00 | 73 | 1013.1 |
| 20260504042551 | 43 | 242 | 1.0 | 6.0 | 0.00 | 0.00 | 0.00 | 73 | 1013.1 |
| 20260504042451 | 43 | 242 | 1.0 | 6.0 | 0.00 | 0.00 | 0.00 | 73 | 1013.1 |
| 20260504042345 | 43 | 242 | 1.0 | 6.0 | 0.00 | 0.00 | 0.00 | 72 | 1013.1 |
| 20260504042245 | 44 | 242 | 1.0 | 6.0 | 0.00 | 0.00 | 0.00 | 71 | 1013.1 |
| 20260504042140 | 44 | 242 | 1.0 | 6.0 | 0.00 | 0.00 | 0.00 | 70 | 1013.1 |
| 20260504042056 | 44 | 242 | 2.0 | 6.0 | 0.00 | 0.00 | 0.00 | 69 | 1013.1 |
| 20260504042049 | 44 | 242 | 1.0 | 6.0 | 0.00 | 0.00 | 0.00 | 69 | 1013.1 |
| 20260504041832 | 44 | 242 | 2.0 | 6.0 | 0.00 | 0.00 | 0.00 | 68 | 1013.0 |
| 20260504041749 | 44 | 242 | 2.0 | 6.0 | 0.00 | 0.00 | 0.00 | 67 | 1013.0 |
| 20260504041742 | 44 | 242 | 2.0 | 6.0 | 0.00 | 0.00 | 0.00 | 67 | 1013.0 |
| 20260504041520 | 44 | 242 | 3.0 | 6.0 | 0.00 | 0.00 | 0.00 | 67 | 1013.0 |
| 20260504041421 | 44 | 242 | 3.0 | 6.0 | 0.00 | 0.00 | 0.00 | 67 | 1013.0 |
| 20260504041315 | 44 | 242 | 3.0 | 6.0 | 0.00 | 0.00 | 0.00 | 67 | 1013.1 |
| 20260504041215 | 44 | 243 | 3.0 | 6.0 | 0.00 | 0.00 | 0.00 | 67 | 1013.1 |
| 20260504041109 | 44 | 243 | 3.0 | 6.0 | 0.00 | 0.00 | 0.00 | 66 | 1013.0 |
| 20260504041008 | 44 | 244 | 3.0 | 6.0 | 0.00 | 0.00 | 0.00 | 66 | 1013.1 |
| 20260504040903 | 44 | 244 | 3.0 | 7.0 | 0.00 | 0.00 | 0.00 | 65 | 1013.1 |
| 20260504040802 | 44 | 244 | 4.0 | 7.0 | 0.00 | 0.00 | 0.00 | 65 | 1013.1 |
| 20260504040656 | 44 | 219 | 4.0 | 7.0 | 0.00 | 0.00 | 0.00 | 65 | 1013.1 |
| 20260504040556 | 44 | 213 | 4.0 | 7.0 | 0.00 | 0.00 | 0.00 | 65 | 1013.1 |
| 20260504040449 | 44 | 213 | 4.0 | 7.0 | 0.00 | 0.00 | 0.00 | 65 | 1013.1 |
| 20260504040350 | 45 | 212 | 4.0 | 7.0 | 0.00 | 0.00 | 0.00 | 65 | 1013.1 |
| 20260504040245 | 45 | 212 | 4.0 | 7.0 | 0.00 | 0.00 | 0.00 | 65 | 1013.1 |
| 20260504040144 | 45 | 211 | 4.0 | 7.0 | 0.00 | 0.00 | 0.00 | 65 | 1013.1 |
| 20260504040039 | 45 | 210 | 4.0 | 7.0 | 0.00 | 0.00 | 0.00 | 65 | 1013.1 |
| 20260504035938 | 45 | 209 | 4.0 | 7.0 | 0.00 | 0.00 | 0.00 | 65 | 1013.1 |
| 20260504035832 | 45 | 211 | 4.0 | 7.0 | 0.00 | 0.00 | 0.00 | 65 | 1013.1 |
| 20260504035732 | 45 | 211 | 4.0 | 7.0 | 0.00 | 0.00 | 0.00 | 65 | 1013.1 |
| 20260504035626 | 45 | 211 | 4.0 | 7.0 | 0.00 | 0.00 | 0.00 | 65 | 1013.0 |
| 20260504035526 | 45 | 212 | 4.0 | 7.0 | 0.00 | 0.00 | 0.00 | 65 | 1013.1 |
| 20260504035421 | 45 | 211 | 4.0 | 7.0 | 0.00 | 0.00 | 0.00 | 65 | 1013.1 |
| 20260504035320 | 45 | 209 | 4.0 | 7.0 | 0.00 | 0.00 | 0.00 | 65 | 1013.1 |
| 20260504035215 | 45 | 209 | 4.0 | 7.0 | 0.00 | 0.00 | 0.00 | 65 | 1013.0 |
| 20260504035114 | 45 | 209 | 4.0 | 7.0 | 0.00 | 0.00 | 0.00 | 66 | 1013.0 |
| 20260504035009 | 45 | 208 | 4.0 | 7.0 | 0.00 | 0.00 | 0.00 | 66 | 1013.0 |
| 20260504034908 | 45 | 209 | 4.0 | 6.0 | 0.00 | 0.00 | 0.00 | 66 | 1013.0 |
| 20260504034803 | 45 | 198 | 3.0 | 6.0 | 0.00 | 0.00 | 0.00 | 66 | 1013.0 |
| 20260504034702 | 45 | 198 | 3.0 | 6.0 | 0.00 | 0.00 | 0.00 | 67 | 1013.0 |
| 20260504034556 | 45 | 194 | 3.0 | 6.0 | 0.00 | 0.00 | 0.00 | 67 | 1013.0 |
| 20260504034456 | 45 | 195 | 3.0 | 6.0 | 0.00 | 0.00 | 0.00 | 67 | 1013.0 |
| 20260504034350 | 45 | 195 | 3.0 | 6.0 | 0.00 | 0.00 | 0.00 | 67 | 1013.0 |
| 20260504034250 | 45 | 196 | 3.0 | 6.0 | 0.00 | 0.00 | 0.00 | 67 | 1012.9 |
| 20260504034145 | 45 | 196 | 4.0 | 6.0 | 0.00 | 0.00 | 0.00 | 67 | 1013.0 |
| 20260504034043 | 45 | 196 | 4.0 | 6.0 | 0.00 | 0.00 | 0.00 | 68 | 1012.9 |
| 20260504033938 | 45 | 196 | 4.0 | 6.0 | 0.00 | 0.00 | 0.00 | 69 | 1012.9 |
| 20260504033854 | 45 | 197 | 4.0 | 6.0 | 0.00 | 0.00 | 0.00 | 69 | 1012.9 |
| 20260504033848 | 45 | 197 | 4.0 | 6.0 | 0.00 | 0.00 | 0.00 | 69 | 1012.9 |
| 20260504033632 | 45 | 198 | 4.0 | 6.0 | 0.00 | 0.00 | 0.00 | 69 | 1012.9 |
| 20260504033527 | 45 | 198 | 4.0 | 6.0 | 0.00 | 0.00 | 0.00 | 69 | 1012.9 |
| 20260504033427 | 45 | 198 | 4.0 | 6.0 | 0.00 | 0.00 | 0.00 | 68 | 1012.9 |
| 20260504033342 | 46 | 198 | 4.0 | 6.0 | 0.00 | 0.00 | 0.00 | 67 | 1012.9 |
| 20260504033335 | 46 | 198 | 4.0 | 6.0 | 0.00 | 0.00 | 0.00 | 68 | 1012.9 |
| 20260504033114 | 46 | 200 | 4.0 | 6.0 | 0.00 | 0.00 | 0.00 | 66 | 1012.9 |
| 20260504033014 | 46 | 200 | 3.0 | 6.0 | 0.00 | 0.00 | 0.00 | 65 | 1012.9 |
| 20260504032908 | 46 | 200 | 3.0 | 5.0 | 0.00 | 0.00 | 0.00 | 65 | 1012.9 |
| 20260504032826 | 46 | 199 | 3.0 | 7.0 | 0.00 | 0.00 | 0.00 | 65 | 1012.9 |
| 20260504032818 | 46 | 200 | 3.0 | 7.0 | 0.00 | 0.00 | 0.00 | 65 | 1012.9 |
| 20260504032602 | 46 | 199 | 3.0 | 7.0 | 0.00 | 0.00 | 0.00 | 65 | 1012.9 |
| 20260504032457 | 46 | 198 | 3.0 | 7.0 | 0.00 | 0.00 | 0.00 | 65 | 1012.9 |
| 20260504032355 | 45 | 198 | 4.0 | 7.0 | 0.00 | 0.00 | 0.00 | 65 | 1012.9 |
| 20260504032250 | 45 | 198 | 4.0 | 7.0 | 0.00 | 0.00 | 0.00 | 65 | 1012.9 |
| 20260504032150 | 45 | 198 | 4.0 | 7.0 | 0.00 | 0.00 | 0.00 | 66 | 1012.9 |
| 20260504032123 | 45 | 200 | 4.0 | 7.0 | 0.00 | 0.00 | 0.00 | 66 | 1012.9 |
| 20260504032118 | 45 | 200 | 4.0 | 7.0 | 0.00 | 0.00 | 0.00 | 67 | 1012.9 |
| 20260504032109 | 45 | 199 | 4.0 | 7.0 | 0.00 | 0.00 | 0.00 | 66 | 1012.9 |
| 20260504031738 | 45 | 198 | 4.0 | 7.0 | 0.00 | 0.00 | 0.00 | 67 | 1012.8 |
| 20260504031632 | 45 | 198 | 4.0 | 7.0 | 0.00 | 0.00 | 0.00 | 68 | 1012.8 |
| 20260504031532 | 45 | 199 | 4.0 | 7.0 | 0.00 | 0.00 | 0.00 | 68 | 1012.8 |
| 20260504031427 | 44 | 200 | 4.0 | 7.0 | 0.00 | 0.00 | 0.00 | 68 | 1012.8 |
| 20260504031325 | 44 | 206 | 4.0 | 7.0 | 0.00 | 0.00 | 0.00 | 69 | 1012.8 |
| 20260504031220 | 44 | 206 | 4.0 | 7.0 | 0.00 | 0.00 | 0.00 | 69 | 1012.8 |
| 20260504031120 | 44 | 207 | 4.0 | 7.0 | 0.00 | 0.00 | 0.00 | 68 | 1012.8 |
| 20260504031037 | 44 | 219 | 4.0 | 7.0 | 0.00 | 0.00 | 0.00 | 67 | 1012.7 |
| 20260504031029 | 44 | 211 | 4.0 | 7.0 | 0.00 | 0.00 | 0.00 | 67 | 1012.7 |
| 20260504030807 | 44 | 227 | 4.0 | 7.0 | 0.00 | 0.00 | 0.00 | 68 | 1012.7 |
| 20260504030708 | 44 | 227 | 4.0 | 7.0 | 0.00 | 0.00 | 0.00 | 68 | 1012.7 |
| 20260504030603 | 44 | 227 | 4.0 | 6.0 | 0.00 | 0.00 | 0.00 | 68 | 1012.7 |
| 20260504030502 | 44 | 229 | 4.0 | 6.0 | 0.00 | 0.00 | 0.00 | 68 | 1012.7 |
| 20260504030356 | 44 | 229 | 4.0 | 6.0 | 0.00 | 0.00 | 0.00 | 69 | 1012.7 |
| 20260504030256 | 44 | 227 | 4.0 | 6.0 | 0.00 | 0.00 | 0.00 | 69 | 1012.7 |
| 20260504030150 | 43 | 225 | 4.0 | 6.0 | 0.00 | 0.00 | 0.00 | 69 | 1012.7 |
| 20260504030050 | 43 | 223 | 4.0 | 6.0 | 0.00 | 0.00 | 0.00 | 69 | 1012.7 |
| 20260504030031 | 43 | 222 | 4.0 | 6.0 | 0.00 | 0.00 | 0.00 | 69 | 1012.6 |
| 20260504030026 | 44 | 215 | 4.0 | 6.0 | 0.00 | 0.00 | 0.00 | 70 | 1012.7 |
| 20260504030017 | 43 | 222 | 4.0 | 6.0 | 0.00 | 0.00 | 0.00 | 69 | 1012.7 |
| 20260504025644 | 44 | 214 | 4.0 | 6.0 | 0.00 | 0.00 | 0.00 | 70 | 1012.7 |
| 20260504025544 | 44 | 215 | 4.0 | 6.0 | 0.00 | 0.00 | 0.00 | 71 | 1012.7 |
| 20260504025442 | 44 | 204 | 4.0 | 6.0 | 0.00 | 0.00 | 0.00 | 71 | 1012.7 |
| 20260504025342 | 44 | 202 | 4.0 | 6.0 | 0.00 | 0.00 | 0.00 | 71 | 1012.7 |
| 20260504025239 | 44 | 204 | 4.0 | 6.0 | 0.00 | 0.00 | 0.00 | 71 | 1012.7 |
| 20260504025140 | 44 | 205 | 4.0 | 6.0 | 0.00 | 0.00 | 0.00 | 71 | 1012.8 |
| 20260504025131 | 44 | 206 | 4.0 | 6.0 | 0.00 | 0.00 | 0.00 | 70 | 1012.8 |
| 20260504025118 | 43 | 205 | 4.0 | 6.0 | 0.00 | 0.00 | 0.00 | 71 | 1012.7 |
| 20260504024959 | 44 | 205 | 4.0 | 6.0 | 0.00 | 0.00 | 0.00 | 70 | 1012.7 |
| 20260504024838 | 44 | 205 | 4.0 | 6.0 | 0.00 | 0.00 | 0.00 | 70 | 1012.7 |
| 20260504024657 | 44 | 209 | 3.0 | 6.0 | 0.00 | 0.00 | 0.00 | 69 | 1012.7 |
| 20260504024652 | 44 | 209 | 3.0 | 5.0 | 0.00 | 0.00 | 0.00 | 69 | 1012.7 |
| 20260504024643 | 44 | 207 | 4.0 | 6.0 | 0.00 | 0.00 | 0.00 | 69 | 1012.7 |
| 20260504024312 | 44 | 210 | 3.0 | 5.0 | 0.00 | 0.00 | 0.00 | 69 | 1012.7 |
| 20260504024205 | 44 | 211 | 3.0 | 5.0 | 0.00 | 0.00 | 0.00 | 70 | 1012.7 |
| 20260504024106 | 44 | 211 | 3.0 | 5.0 | 0.00 | 0.00 | 0.00 | 70 | 1012.7 |
| 20260504024000 | 44 | 213 | 3.0 | 5.0 | 0.00 | 0.00 | 0.00 | 70 | 1012.8 |
| 20260504023900 | 44 | 213 | 3.0 | 5.0 | 0.00 | 0.00 | 0.00 | 70 | 1012.7 |
| 20260504023756 | 44 | 213 | 2.0 | 5.0 | 0.00 | 0.00 | 0.00 | 69 | 1012.7 |
| 20260504023654 | 44 | 213 | 2.0 | 4.0 | 0.00 | 0.00 | 0.00 | 69 | 1012.7 |
| 20260504023548 | 45 | 214 | 2.0 | 4.0 | 0.00 | 0.00 | 0.00 | 69 | 1012.7 |
| 20260504023448 | 45 | 214 | 2.0 | 4.0 | 0.00 | 0.00 | 0.00 | 69 | 1012.7 |
| 20260504023342 | 45 | 214 | 2.0 | 4.0 | 0.00 | 0.00 | 0.00 | 69 | 1012.7 |
| 20260504023241 | 45 | 214 | 2.0 | 5.0 | 0.00 | 0.00 | 0.00 | 68 | 1012.8 |
| 20260504023136 | 45 | 215 | 2.0 | 5.0 | 0.00 | 0.00 | 0.00 | 68 | 1012.7 |
| 20260504023053 | 46 | 215 | 2.0 | 5.0 | 0.00 | 0.00 | 0.00 | 68 | 1012.8 |
| 20260504023049 | 46 | 215 | 2.0 | 5.0 | 0.00 | 0.00 | 0.00 | 68 | 1012.7 |
| 20260504023043 | 45 | 215 | 2.0 | 5.0 | 0.00 | 0.00 | 0.00 | 68 | 1012.8 |
| 20260504023027 | 46 | 215 | 2.0 | 5.0 | 0.00 | 0.00 | 0.00 | 68 | 1012.8 |
| 20260504022757 | 46 | 215 | 2.0 | 5.0 | 0.00 | 0.00 | 0.00 | 67 | 1012.7 |
| 20260504022747 | 46 | 215 | 2.0 | 5.0 | 0.00 | 0.00 | 0.00 | 67 | 1012.7 |
| 20260504022418 | 46 | 215 | 2.0 | 5.0 | 0.00 | 0.00 | 0.00 | 67 | 1012.7 |
| 20260504022312 | 46 | 215 | 3.0 | 5.0 | 0.00 | 0.00 | 0.00 | 66 | 1012.7 |
| 20260504022212 | 46 | 215 | 3.0 | 5.0 | 0.00 | 0.00 | 0.00 | 66 | 1012.7 |
| 20260504022106 | 46 | 215 | 3.0 | 5.0 | 0.00 | 0.00 | 0.00 | 65 | 1012.7 |
| 20260504022006 | 46 | 215 | 3.0 | 5.0 | 0.00 | 0.00 | 0.00 | 66 | 1012.7 |
| 20260504021900 | 46 | 215 | 3.0 | 5.0 | 0.00 | 0.00 | 0.00 | 67 | 1012.7 |
| 20260504021800 | 46 | 215 | 3.0 | 6.0 | 0.00 | 0.00 | 0.00 | 68 | 1012.8 |
| 20260504021655 | 46 | 215 | 3.0 | 6.0 | 0.00 | 0.00 | 0.00 | 68 | 1012.8 |
| 20260504021610 | 46 | 215 | 3.0 | 6.0 | 0.00 | 0.00 | 0.00 | 67 | 1012.8 |
| 20260504021603 | 46 | 215 | 3.0 | 6.0 | 0.00 | 0.00 | 0.00 | 68 | 1012.7 |
| 20260504021348 | 46 | 215 | 3.0 | 6.0 | 0.00 | 0.00 | 0.00 | 66 | 1012.7 |
| 20260504021242 | 46 | 215 | 3.0 | 6.0 | 0.00 | 0.00 | 0.00 | 63 | 1012.7 |
| 20260504021142 | 46 | 217 | 3.0 | 6.0 | 0.00 | 0.00 | 0.00 | 61 | 1012.7 |
| 20260504021036 | 46 | 217 | 3.0 | 6.0 | 0.00 | 0.00 | 0.00 | 60 | 1012.7 |
| 20260504020936 | 46 | 217 | 3.0 | 6.0 | 0.00 | 0.00 | 0.00 | 60 | 1012.6 |
| 20260504020832 | 47 | 217 | 3.0 | 6.0 | 0.00 | 0.00 | 0.00 | 60 | 1012.7 |
| 20260504020730 | 47 | 217 | 3.0 | 6.0 | 0.00 | 0.00 | 0.00 | 59 | 1012.7 |
| 20260504020624 | 47 | 217 | 4.0 | 6.0 | 0.00 | 0.00 | 0.00 | 59 | 1012.7 |
| 20260504020524 | 47 | 217 | 4.0 | 6.0 | 0.00 | 0.00 | 0.00 | 60 | 1012.8 |
| 20260504020418 | 47 | 217 | 4.0 | 6.0 | 0.00 | 0.00 | 0.00 | 60 | 1012.8 |
| 20260504020318 | 47 | 217 | 4.0 | 6.0 | 0.00 | 0.00 | 0.00 | 60 | 1012.8 |
| 20260504020212 | 47 | 217 | 4.0 | 6.0 | 0.00 | 0.00 | 0.00 | 60 | 1012.8 |
| 20260504020112 | 47 | 217 | 4.0 | 6.0 | 0.00 | 0.00 | 0.00 | 61 | 1012.8 |
| 20260504020006 | 47 | 217 | 4.0 | 6.0 | 0.00 | 0.00 | 0.00 | 61 | 1012.8 |
| 20260504015906 | 47 | 218 | 4.0 | 6.0 | 0.00 | 0.00 | 0.00 | 62 | 1012.8 |
| 20260504015759 | 47 | 221 | 4.0 | 6.0 | 0.00 | 0.00 | 0.00 | 63 | 1012.7 |
| 20260504015700 | 47 | 223 | 3.0 | 5.0 | 0.00 | 0.00 | 0.00 | 62 | 1012.8 |
| 20260504015553 | 47 | 226 | 3.0 | 5.0 | 0.00 | 0.00 | 0.00 | 60 | 1012.7 |
| 20260504015454 | 47 | 227 | 3.0 | 5.0 | 0.00 | 0.00 | 0.00 | 60 | 1012.7 |
| 20260504015446 | 47 | 228 | 3.0 | 5.0 | 0.00 | 0.00 | 0.00 | 59 | 1012.7 |
| 20260504015442 | 47 | 227 | 3.0 | 5.0 | 0.00 | 0.00 | 0.00 | 59 | 1012.7 |
| 20260504015429 | 47 | 227 | 3.0 | 5.0 | 0.00 | 0.00 | 0.00 | 60 | 1012.7 |
| 20260504015153 | 47 | 227 | 3.0 | 5.0 | 0.00 | 0.00 | 0.00 | 59 | 1012.7 |
| 20260504015011 | 47 | 229 | 3.0 | 5.0 | 0.00 | 0.00 | 0.00 | 59 | 1012.7 |
| 20260504015001 | 47 | 228 | 3.0 | 5.0 | 0.00 | 0.00 | 0.00 | 59 | 1012.7 |
| 20260504014842 | 47 | 229 | 3.0 | 5.0 | 0.00 | 0.00 | 0.00 | 59 | 1012.7 |
| 20260504014644 | 47 | 229 | 3.0 | 5.0 | 0.00 | 0.00 | 0.00 | 59 | 1012.7 |
| 20260504014636 | 47 | 229 | 3.0 | 5.0 | 0.00 | 0.00 | 0.00 | 59 | 1012.7 |
| 20260504014420 | 47 | 229 | 3.0 | 5.0 | 0.00 | 0.00 | 0.00 | 60 | 1012.7 |
| 20260504014315 | 47 | 229 | 3.0 | 5.0 | 0.00 | 0.00 | 0.00 | 60 | 1012.6 |
| 20260504014213 | 47 | 229 | 3.0 | 4.0 | 0.00 | 0.00 | 0.00 | 59 | 1012.7 |
| 20260504014128 | 47 | 229 | 3.0 | 4.0 | 0.00 | 0.00 | 0.00 | 58 | 1012.6 |
| 20260504014122 | 47 | 229 | 3.0 | 4.0 | 0.00 | 0.00 | 0.00 | 59 | 1012.6 |
| 20260504013902 | 47 | 229 | 3.0 | 5.0 | 0.00 | 0.00 | 0.00 | 58 | 1012.6 |
| 20260504013802 | 48 | 229 | 3.0 | 5.0 | 0.00 | 0.00 | 0.00 | 58 | 1012.6 |
| 20260504013655 | 48 | 229 | 3.0 | 5.0 | 0.00 | 0.00 | 0.00 | 58 | 1012.5 |
| 20260504013613 | 48 | 229 | 3.0 | 5.0 | 0.00 | 0.00 | 0.00 | 57 | 1012.5 |
| 20260504013606 | 48 | 229 | 3.0 | 5.0 | 0.00 | 0.00 | 0.00 | 58 | 1012.5 |
| 20260504013405 | 48 | 230 | 3.0 | 5.0 | 0.00 | 0.00 | 0.00 | 56 | 1012.5 |
| 20260504013359 | 48 | 229 | 3.0 | 5.0 | 0.00 | 0.00 | 0.00 | 57 | 1012.5 |
| 20260504013144 | 48 | 230 | 3.0 | 5.0 | 0.00 | 0.00 | 0.00 | 56 | 1012.5 |
| 20260504013038 | 48 | 230 | 3.0 | 5.0 | 0.00 | 0.00 | 0.00 | 56 | 1012.5 |
| 20260504012938 | 48 | 230 | 3.0 | 5.0 | 0.00 | 0.00 | 0.00 | 55 | 1012.5 |
| 20260504012832 | 49 | 230 | 3.0 | 5.0 | 0.00 | 0.00 | 0.00 | 55 | 1012.5 |
| 20260504012732 | 49 | 230 | 3.0 | 5.0 | 0.00 | 0.00 | 0.00 | 55 | 1012.5 |
| 20260504012626 | 49 | 230 | 3.0 | 5.0 | 0.00 | 0.00 | 0.00 | 54 | 1012.5 |
| 20260504012526 | 49 | 230 | 3.0 | 5.0 | 0.00 | 0.00 | 0.00 | 54 | 1012.5 |
| 20260504012420 | 49 | 230 | 3.0 | 5.0 | 0.00 | 0.00 | 0.00 | 53 | 1012.5 |
| 20260504012320 | 49 | 230 | 3.0 | 5.0 | 0.00 | 0.00 | 0.00 | 53 | 1012.4 |
| 20260504012216 | 49 | 230 | 3.0 | 5.0 | 0.00 | 0.00 | 0.00 | 52 | 1012.5 |
| 20260504012114 | 49 | 230 | 3.0 | 5.0 | 0.00 | 0.00 | 0.00 | 52 | 1012.4 |
| 20260504012009 | 49 | 230 | 3.0 | 5.0 | 0.00 | 0.00 | 0.00 | 52 | 1012.5 |
| 20260504011908 | 49 | 232 | 3.0 | 5.0 | 0.00 | 0.00 | 0.00 | 52 | 1012.4 |
| 20260504011802 | 49 | 232 | 3.0 | 5.0 | 0.00 | 0.00 | 0.00 | 51 | 1012.4 |
| 20260504011720 | 49 | 232 | 3.0 | 5.0 | 0.00 | 0.00 | 0.00 | 51 | 1012.4 |
| 20260504011713 | 49 | 232 | 3.0 | 5.0 | 0.00 | 0.00 | 0.00 | 51 | 1012.4 |
| 20260504011455 | 49 | 229 | 3.0 | 5.0 | 0.00 | 0.00 | 0.00 | 51 | 1012.4 |
| 20260504011350 | 49 | 229 | 3.0 | 5.0 | 0.00 | 0.00 | 0.00 | 51 | 1012.4 |
| 20260504011250 | 49 | 229 | 3.0 | 5.0 | 0.00 | 0.00 | 0.00 | 51 | 1012.4 |
| 20260504011207 | 49 | 226 | 3.0 | 5.0 | 0.00 | 0.00 | 0.00 | 51 | 1012.4 |
| 20260504011200 | 49 | 227 | 3.0 | 5.0 | 0.00 | 0.00 | 0.00 | 51 | 1012.4 |
| 20260504010938 | 49 | 225 | 3.0 | 6.0 | 0.00 | 0.00 | 0.00 | 50 | 1012.4 |
| 20260504010838 | 49 | 225 | 3.0 | 6.0 | 0.00 | 0.00 | 0.00 | 50 | 1012.3 |
| 20260504010732 | 49 | 225 | 3.0 | 6.0 | 0.00 | 0.00 | 0.00 | 50 | 1012.3 |
| 20260504010632 | 50 | 225 | 3.0 | 6.0 | 0.00 | 0.00 | 0.00 | 50 | 1012.4 |
| 20260504010528 | 50 | 225 | 3.0 | 6.0 | 0.00 | 0.00 | 0.00 | 50 | 1012.3 |
| 20260504010444 | 50 | 224 | 3.0 | 6.0 | 0.00 | 0.00 | 0.00 | 49 | 1012.3 |
| 20260504010436 | 50 | 225 | 3.0 | 6.0 | 0.00 | 0.00 | 0.00 | 49 | 1012.4 |
| 20260504010220 | 50 | 224 | 3.0 | 6.0 | 0.00 | 0.00 | 0.00 | 49 | 1012.3 |
| 20260504010114 | 50 | 224 | 3.0 | 6.0 | 0.00 | 0.00 | 0.00 | 48 | 1012.3 |
| 20260504010014 | 50 | 224 | 3.0 | 6.0 | 0.00 | 0.00 | 0.00 | 48 | 1012.3 |
| 20260504005951 | 51 | 223 | 3.0 | 6.0 | 0.00 | 0.00 | 0.00 | 48 | 1012.4 |
| 20260504005946 | 51 | 224 | 3.0 | 6.0 | 0.00 | 0.00 | 0.00 | 47 | 1012.4 |
| 20260504005937 | 50 | 224 | 3.0 | 6.0 | 0.00 | 0.00 | 0.00 | 48 | 1012.3 |
| 20260504005819 | 51 | 223 | 3.0 | 6.0 | 0.00 | 0.00 | 0.00 | 48 | 1012.4 |
| 20260504005813 | 51 | 224 | 3.0 | 6.0 | 0.00 | 0.00 | 0.00 | 48 | 1012.3 |
| 20260504005757 | 51 | 224 | 3.0 | 6.0 | 0.00 | 0.00 | 0.00 | 48 | 1012.3 |
| 20260504005638 | 51 | 224 | 3.0 | 6.0 | 0.00 | 0.00 | 0.00 | 48 | 1012.3 |
| 20260504005150 | 51 | 225 | 3.0 | 6.0 | 0.00 | 0.00 | 0.00 | 47 | 1012.3 |
| 20260504005045 | 52 | 224 | 3.0 | 6.0 | 0.00 | 0.00 | 0.00 | 47 | 1012.3 |
| 20260504004944 | 52 | 225 | 3.0 | 6.0 | 0.00 | 0.00 | 0.00 | 46 | 1012.3 |
| 20260504004838 | 52 | 225 | 3.0 | 6.0 | 0.00 | 0.00 | 0.00 | 46 | 1012.3 |
| 20260504004738 | 52 | 225 | 3.0 | 6.0 | 0.00 | 0.00 | 0.00 | 46 | 1012.3 |
| 20260504004632 | 52 | 242 | 3.0 | 6.0 | 0.00 | 0.00 | 0.00 | 45 | 1012.3 |
| 20260504004532 | 53 | 245 | 3.0 | 6.0 | 0.00 | 0.00 | 0.00 | 45 | 1012.3 |
| 20260504004425 | 53 | 245 | 3.0 | 6.0 | 0.00 | 0.00 | 0.00 | 45 | 1012.3 |
| 20260504004343 | 53 | 246 | 3.0 | 6.0 | 0.00 | 0.00 | 0.00 | 44 | 1012.3 |
| 20260504004336 | 53 | 245 | 3.0 | 6.0 | 0.00 | 0.00 | 0.00 | 44 | 1012.3 |
| 20260504004120 | 53 | 246 | 3.0 | 6.0 | 0.00 | 0.00 | 0.00 | 44 | 1012.2 |
| 20260504004014 | 54 | 246 | 3.0 | 6.0 | 0.00 | 0.00 | 0.00 | 44 | 1012.2 |
| 20260504003913 | 54 | 246 | 3.0 | 6.0 | 0.00 | 0.00 | 0.00 | 44 | 1012.2 |
| 20260504003808 | 54 | 246 | 3.0 | 6.0 | 0.00 | 0.00 | 0.00 | 44 | 1012.2 |
| 20260504003708 | 54 | 246 | 3.0 | 6.0 | 0.00 | 0.00 | 0.00 | 43 | 1012.2 |
| 20260504003604 | 54 | 246 | 3.0 | 6.0 | 0.00 | 0.00 | 0.00 | 43 | 1012.2 |
| 20260504003558 | 55 | 246 | 3.0 | 8.0 | 0.00 | 0.00 | 0.00 | 43 | 1012.2 |
| 20260504003553 | 55 | 246 | 3.0 | 8.0 | 0.00 | 0.00 | 0.00 | 43 | 1012.1 |
| 20260504003542 | 54 | 246 | 3.0 | 8.0 | 0.00 | 0.00 | 0.00 | 43 | 1012.2 |
| 20260504003420 | 55 | 246 | 3.0 | 8.0 | 0.00 | 0.00 | 0.00 | 43 | 1012.2 |
| 20260504003107 | 55 | 248 | 3.0 | 8.0 | 0.00 | 0.00 | 0.00 | 43 | 1012.1 |
| 20260504003100 | 55 | 248 | 3.0 | 8.0 | 0.00 | 0.00 | 0.00 | 42 | 1012.1 |
| 20260504002844 | 55 | 248 | 3.0 | 8.0 | 0.00 | 0.00 | 0.00 | 43 | 1012.1 |
| 20260504002739 | 55 | 249 | 4.0 | 8.0 | 0.00 | 0.00 | 0.00 | 43 | 1012.1 |
| 20260504002638 | 55 | 249 | 4.0 | 8.0 | 0.00 | 0.00 | 0.00 | 43 | 1012.1 |
| 20260504002532 | 56 | 250 | 4.0 | 10.0 | 0.00 | 0.00 | 0.00 | 42 | 1012.1 |
| 20260504002432 | 56 | 247 | 4.0 | 10.0 | 0.00 | 0.00 | 0.00 | 42 | 1012.1 |
| 20260504002326 | 56 | 247 | 4.0 | 10.0 | 0.00 | 0.00 | 0.00 | 42 | 1012.1 |
| 20260504002226 | 56 | 247 | 5.0 | 10.0 | 0.00 | 0.00 | 0.00 | 42 | 1012.1 |
| 20260504002119 | 56 | 249 | 5.0 | 10.0 | 0.00 | 0.00 | 0.00 | 42 | 1012.1 |
| 20260504002021 | 56 | 248 | 5.0 | 10.0 | 0.00 | 0.00 | 0.00 | 42 | 1012.1 |
| 20260504001915 | 56 | 248 | 5.0 | 10.0 | 0.00 | 0.00 | 0.00 | 42 | 1012.1 |
| 20260504001814 | 56 | 249 | 5.0 | 10.0 | 0.00 | 0.00 | 0.00 | 42 | 1012.1 |
| 20260504001709 | 56 | 243 | 5.0 | 10.0 | 0.00 | 0.00 | 0.00 | 42 | 1012.1 |
| 20260504001608 | 56 | 242 | 5.0 | 10.0 | 0.00 | 0.00 | 0.00 | 41 | 1012.1 |
| 20260504001502 | 56 | 258 | 5.0 | 11.0 | 0.00 | 0.00 | 0.00 | 41 | 1012.0 |
| 20260504001402 | 56 | 258 | 5.0 | 11.0 | 0.00 | 0.00 | 0.00 | 42 | 1012.0 |
| 20260504001257 | 56 | 260 | 5.0 | 11.0 | 0.00 | 0.00 | 0.00 | 41 | 1012.1 |
| 20260504001156 | 56 | 228 | 5.0 | 11.0 | 0.00 | 0.00 | 0.00 | 41 | 1012.0 |
| 20260504001051 | 56 | 276 | 5.0 | 11.0 | 0.00 | 0.00 | 0.00 | 42 | 1012.0 |
| 20260504000950 | 56 | 245 | 5.0 | 11.0 | 0.00 | 0.00 | 0.00 | 41 | 1012.0 |
| 20260504000844 | 56 | 254 | 5.0 | 11.0 | 0.00 | 0.00 | 0.00 | 42 | 1012.0 |
| 20260504000744 | 56 | 242 | 5.0 | 11.0 | 0.00 | 0.00 | 0.00 | 41 | 1011.9 |
| 20260504000638 | 56 | 245 | 5.0 | 11.0 | 0.00 | 0.00 | 0.00 | 41 | 1011.9 |
| 20260504000555 | 57 | 236 | 5.0 | 11.0 | 0.00 | 0.00 | 0.00 | 41 | 1011.9 |
| 20260504000548 | 57 | 246 | 5.0 | 11.0 | 0.00 | 0.00 | 0.00 | 41 | 1011.9 |
| 20260504000331 | 57 | 233 | 5.0 | 11.0 | 0.00 | 0.00 | 0.00 | 41 | 1011.9 |
| 20260504000227 | 57 | 233 | 5.0 | 11.0 | 0.00 | 0.00 | 0.00 | 40 | 1011.9 |
| 20260504000127 | 57 | 240 | 5.0 | 11.0 | 0.00 | 0.00 | 0.00 | 40 | 1011.8 |
| 20260504000022 | 57 | 249 | 5.0 | 11.0 | 0.00 | 0.00 | 0.00 | 41 | 1011.9 |
| 20260503235919 | 57 | 258 | 5.0 | 11.0 | 0.00 | 0.00 | 0.00 | 40 | 1011.8 |
| 20260503235814 | 57 | 249 | 5.0 | 11.0 | 0.00 | 0.00 | 0.00 | 40 | 1011.8 |
| 20260503235714 | 57 | 244 | 5.0 | 11.0 | 0.00 | 0.00 | 0.00 | 40 | 1011.8 |
| 20260503235608 | 57 | 252 | 5.0 | 11.0 | 0.00 | 0.00 | 0.00 | 40 | 1011.8 |
| 20260503235525 | 57 | 245 | 5.0 | 10.0 | 0.00 | 0.00 | 0.00 | 40 | 1011.7 |
| 20260503235518 | 57 | 263 | 5.0 | 10.0 | 0.00 | 0.00 | 0.00 | 39 | 1011.8 |
| 20260503235304 | 57 | 247 | 5.0 | 10.0 | 0.00 | 0.00 | 0.00 | 40 | 1011.7 |
| 20260503235219 | 58 | 257 | 6.0 | 13.0 | 0.00 | 0.00 | 0.00 | 39 | 1011.7 |
| 20260503235211 | 58 | 244 | 6.0 | 13.0 | 0.00 | 0.00 | 0.00 | 39 | 1011.7 |
| 20260503235015 | 58 | 242 | 6.0 | 13.0 | 0.00 | 0.00 | 0.00 | 39 | 1011.7 |
| 20260503235007 | 58 | 225 | 6.0 | 13.0 | 0.00 | 0.00 | 0.00 | 39 | 1011.7 |
| 20260503234823 | 58 | 253 | 7.0 | 13.0 | 0.00 | 0.00 | 0.00 | 39 | 1011.7 |
| 20260503234819 | 58 | 252 | 8.0 | 13.0 | 0.00 | 0.00 | 0.00 | 38 | 1011.7 |
| 20260503234810 | 58 | 232 | 7.0 | 13.0 | 0.00 | 0.00 | 0.00 | 39 | 1011.7 |
| 20260503234439 | 58 | 259 | 8.0 | 13.0 | 0.00 | 0.00 | 0.00 | 38 | 1011.7 |
| 20260503234332 | 58 | 251 | 8.0 | 13.0 | 0.00 | 0.00 | 0.00 | 38 | 1011.6 |
| 20260503234250 | 58 | 267 | 8.0 | 13.0 | 0.00 | 0.00 | 0.00 | 38 | 1011.6 |
| 20260503234243 | 58 | 259 | 8.0 | 13.0 | 0.00 | 0.00 | 0.00 | 38 | 1011.7 |
| 20260503234044 | 58 | 300 | 8.0 | 17.0 | 0.00 | 0.00 | 0.00 | 37 | 1011.6 |
| 20260503234036 | 58 | 301 | 8.0 | 17.0 | 0.00 | 0.00 | 0.00 | 38 | 1011.6 |
| 20260503233820 | 58 | 265 | 7.0 | 17.0 | 0.00 | 0.00 | 0.00 | 37 | 1011.6 |
| 20260503233715 | 58 | 240 | 7.0 | 17.0 | 0.00 | 0.00 | 0.00 | 38 | 1011.6 |
| 20260503233632 | 58 | 252 | 7.0 | 17.0 | 0.00 | 0.00 | 0.00 | 37 | 1011.6 |
| 20260503233624 | 58 | 271 | 7.0 | 17.0 | 0.00 | 0.00 | 0.00 | 37 | 1011.6 |
| 20260503233408 | 58 | 249 | 7.0 | 17.0 | 0.00 | 0.00 | 0.00 | 39 | 1011.6 |
| 20260503233302 | 59 | 261 | 7.0 | 17.0 | 0.00 | 0.00 | 0.00 | 37 | 1011.6 |
| 20260503233202 | 59 | 256 | 7.0 | 17.0 | 0.00 | 0.00 | 0.00 | 37 | 1011.6 |
| 20260503233119 | 59 | 254 | 8.0 | 17.0 | 0.00 | 0.00 | 0.00 | 37 | 1011.6 |
| 20260503233111 | 59 | 269 | 8.0 | 17.0 | 0.00 | 0.00 | 0.00 | 37 | 1011.6 |
| 20260503232851 | 59 | 245 | 8.0 | 17.0 | 0.00 | 0.00 | 0.00 | 37 | 1011.6 |
| 20260503232750 | 59 | 280 | 8.0 | 17.0 | 0.00 | 0.00 | 0.00 | 37 | 1011.6 |
| 20260503232644 | 59 | 261 | 8.0 | 17.0 | 0.00 | 0.00 | 0.00 | 36 | 1011.6 |
| 20260503232601 | 59 | 252 | 8.0 | 17.0 | 0.00 | 0.00 | 0.00 | 37 | 1011.6 |
| 20260503232553 | 59 | 244 | 8.0 | 17.0 | 0.00 | 0.00 | 0.00 | 37 | 1011.6 |
| 20260503232338 | 59 | 244 | 8.0 | 17.0 | 0.00 | 0.00 | 0.00 | 36 | 1011.5 |
| 20260503232315 | 59 | 224 | 8.0 | 15.0 | 0.00 | 0.00 | 0.00 | 36 | 1011.6 |
| 20260503232305 | 59 | 188 | 8.0 | 17.0 | 0.00 | 0.00 | 0.00 | 37 | 1011.6 |
| 20260503232144 | 59 | 277 | 8.0 | 17.0 | 0.00 | 0.00 | 0.00 | 36 | 1011.6 |
| 20260503231926 | 59 | 226 | 8.0 | 16.0 | 0.00 | 0.00 | 0.00 | 36 | 1011.6 |
| 20260503231821 | 59 | 325 | 8.0 | 16.0 | 0.00 | 0.00 | 0.00 | 36 | 1011.5 |
| 20260503231720 | 59 | 237 | 8.0 | 16.0 | 0.00 | 0.00 | 0.00 | 36 | 1011.6 |
| 20260503231653 | 59 | 259 | 8.0 | 16.0 | 0.00 | 0.00 | 0.00 | 37 | 1011.5 |
| 20260503231643 | 59 | 248 | 8.0 | 16.0 | 0.00 | 0.00 | 0.00 | 37 | 1011.6 |
| 20260503231523 | 59 | 270 | 8.0 | 16.0 | 0.00 | 0.00 | 0.00 | 36 | 1011.5 |
| 20260503231308 | 59 | 244 | 8.0 | 16.0 | 0.00 | 0.00 | 0.00 | 37 | 1011.5 |
| 20260503231202 | 59 | 260 | 8.0 | 16.0 | 0.00 | 0.00 | 0.00 | 37 | 1011.5 |
| 20260503231102 | 59 | 240 | 8.0 | 16.0 | 0.00 | 0.00 | 0.00 | 36 | 1011.5 |
| 20260503230957 | 60 | 251 | 9.0 | 16.0 | 0.00 | 0.00 | 0.00 | 36 | 1011.5 |
| 20260503230856 | 60 | 257 | 9.0 | 16.0 | 0.00 | 0.00 | 0.00 | 37 | 1011.6 |
| 20260503230828 | 60 | 239 | 9.0 | 16.0 | 0.00 | 0.00 | 0.00 | 36 | 1011.6 |
| 20260503230823 | 60 | 267 | 9.0 | 16.0 | 0.00 | 0.00 | 0.00 | 35 | 1011.5 |
| 20260503230815 | 60 | 267 | 9.0 | 16.0 | 0.00 | 0.00 | 0.00 | 36 | 1011.6 |
| 20260503230444 | 60 | 221 | 8.0 | 16.0 | 0.00 | 0.00 | 0.00 | 36 | 1011.5 |
| 20260503230338 | 60 | 258 | 8.0 | 16.0 | 0.00 | 0.00 | 0.00 | 35 | 1011.5 |
| 20260503230238 | 60 | 221 | 8.0 | 19.0 | 0.00 | 0.00 | 0.00 | 36 | 1011.6 |
| 20260503230133 | 60 | 247 | 8.0 | 19.0 | 0.00 | 0.00 | 0.00 | 36 | 1011.5 |
| 20260503230032 | 60 | 298 | 8.0 | 19.0 | 0.00 | 0.00 | 0.00 | 35 | 1011.5 |
| 20260503225927 | 60 | 202 | 7.0 | 19.0 | 0.00 | 0.00 | 0.00 | 37 | 1011.6 |
| 20260503225826 | 60 | 252 | 7.0 | 19.0 | 0.00 | 0.00 | 0.00 | 36 | 1011.5 |
| 20260503225720 | 60 | 259 | 7.0 | 19.0 | 0.00 | 0.00 | 0.00 | 36 | 1011.5 |
| 20260503225620 | 60 | 248 | 8.0 | 19.0 | 0.00 | 0.00 | 0.00 | 36 | 1011.5 |
| 20260503225515 | 60 | 281 | 8.0 | 19.0 | 0.00 | 0.00 | 0.00 | 36 | 1011.5 |
| 20260503225414 | 60 | 232 | 8.0 | 19.0 | 0.00 | 0.00 | 0.00 | 35 | 1011.5 |
| 20260503225309 | 60 | 235 | 9.0 | 19.0 | 0.00 | 0.00 | 0.00 | 35 | 1011.5 |
| 20260503225208 | 60 | 232 | 8.0 | 19.0 | 0.00 | 0.00 | 0.00 | 35 | 1011.5 |
| 20260503225102 | 60 | 244 | 8.0 | 19.0 | 0.00 | 0.00 | 0.00 | 35 | 1011.5 |
| 20260503225019 | 60 | 278 | 7.0 | 19.0 | 0.00 | 0.00 | 0.00 | 36 | 1011.6 |
| 20260503225012 | 60 | 230 | 8.0 | 19.0 | 0.00 | 0.00 | 0.00 | 36 | 1011.5 |
| 20260503224836 | 60 | 279 | 7.0 | 19.0 | 0.00 | 0.00 | 0.00 | 35 | 1011.5 |
| 20260503224831 | 61 | 240 | 7.0 | 19.0 | 0.00 | 0.00 | 0.00 | 37 | 1011.5 |
| 20260503224821 | 60 | 228 | 7.0 | 19.0 | 0.00 | 0.00 | 0.00 | 35 | 1011.4 |
| 20260503224445 | 61 | 275 | 7.0 | 19.0 | 0.00 | 0.00 | 0.00 | 36 | 1011.5 |
| 20260503224344 | 61 | 277 | 7.0 | 19.0 | 0.00 | 0.00 | 0.00 | 36 | 1011.5 |
| 20260503224238 | 61 | 246 | 7.0 | 18.0 | 0.00 | 0.00 | 0.00 | 36 | 1011.5 |
| 20260503224138 | 61 | 290 | 8.0 | 18.0 | 0.00 | 0.00 | 0.00 | 36 | 1011.5 |
| 20260503224056 | 61 | 329 | 10.0 | 18.0 | 0.00 | 0.00 | 0.00 | 36 | 1011.5 |
| 20260503224048 | 61 | 275 | 9.0 | 18.0 | 0.00 | 0.00 | 0.00 | 36 | 1011.5 |
| 20260503223826 | 61 | 259 | 10.0 | 18.0 | 0.00 | 0.00 | 0.00 | 35 | 1011.5 |
| 20260503223726 | 61 | 259 | 10.0 | 18.0 | 0.00 | 0.00 | 0.00 | 34 | 1011.5 |
| 20260503223621 | 61 | 252 | 10.0 | 18.0 | 0.00 | 0.00 | 0.00 | 34 | 1011.5 |
| 20260503223520 | 61 | 289 | 10.0 | 18.0 | 0.00 | 0.00 | 0.00 | 36 | 1011.5 |
| 20260503223438 | 61 | 260 | 10.0 | 18.0 | 0.00 | 0.00 | 0.00 | 35 | 1011.5 |
| 20260503223431 | 61 | 290 | 10.0 | 18.0 | 0.00 | 0.00 | 0.00 | 35 | 1011.5 |
| 20260503223231 | 61 | 262 | 9.0 | 17.0 | 0.00 | 0.00 | 0.00 | 34 | 1011.5 |
| 20260503223224 | 61 | 261 | 9.0 | 17.0 | 0.00 | 0.00 | 0.00 | 36 | 1011.5 |
| 20260503223002 | 61 | 248 | 8.0 | 17.0 | 0.00 | 0.00 | 0.00 | 36 | 1011.5 |
| 20260503222903 | 61 | 261 | 8.0 | 17.0 | 0.00 | 0.00 | 0.00 | 36 | 1011.6 |
| 20260503222756 | 61 | 302 | 7.0 | 13.0 | 0.00 | 0.00 | 0.00 | 37 | 1011.6 |
| 20260503222656 | 61 | 286 | 7.0 | 19.0 | 0.00 | 0.00 | 0.00 | 37 | 1011.5 |
| 20260503222550 | 61 | 311 | 7.0 | 19.0 | 0.00 | 0.00 | 0.00 | 35 | 1011.5 |
| 20260503222451 | 61 | 279 | 6.0 | 19.0 | 0.00 | 0.00 | 0.00 | 35 | 1011.5 |
| 20260503222427 | 62 | 290 | 8.0 | 19.0 | 0.00 | 0.00 | 0.00 | 36 | 1011.5 |
| 20260503222422 | 62 | 251 | 6.0 | 19.0 | 0.00 | 0.00 | 0.00 | 37 | 1011.5 |
| 20260503222417 | 62 | 286 | 7.0 | 19.0 | 0.00 | 0.00 | 0.00 | 37 | 1011.5 |
| 20260503222408 | 61 | 261 | 6.0 | 19.0 | 0.00 | 0.00 | 0.00 | 37 | 1011.5 |
| 20260503222237 | 62 | 261 | 6.0 | 19.0 | 0.00 | 0.00 | 0.00 | 36 | 1011.5 |
| 20260503222125 | 62 | 329 | 8.0 | 19.0 | 0.00 | 0.00 | 0.00 | 36 | 1011.5 |
| 20260503222114 | 62 | 342 | 6.0 | 19.0 | 0.00 | 0.00 | 0.00 | 36 | 1011.5 |
| 20260503221626 | 62 | 274 | 9.0 | 19.0 | 0.00 | 0.00 | 0.00 | 35 | 1011.5 |
| 20260503221521 | 62 | 259 | 9.0 | 19.0 | 0.00 | 0.00 | 0.00 | 36 | 1011.5 |
| 20260503221420 | 61 | 265 | 9.0 | 19.0 | 0.00 | 0.00 | 0.00 | 35 | 1011.5 |
| 20260503221315 | 61 | 329 | 9.0 | 19.0 | 0.00 | 0.00 | 0.00 | 35 | 1011.5 |
| 20260503221214 | 62 | 324 | 9.0 | 19.0 | 0.00 | 0.00 | 0.00 | 35 | 1011.5 |
| 20260503221131 | 62 | 288 | 9.0 | 19.0 | 0.00 | 0.00 | 0.00 | 36 | 1011.6 |
| 20260503221124 | 62 | 303 | 9.0 | 19.0 | 0.00 | 0.00 | 0.00 | 35 | 1011.5 |
| 20260503220902 | 62 | 325 | 9.0 | 19.0 | 0.00 | 0.00 | 0.00 | 35 | 1011.5 |
| 20260503220819 | 62 | 217 | 8.0 | 16.0 | 0.00 | 0.00 | 0.00 | 35 | 1011.4 |
| 20260503220812 | 62 | 295 | 8.0 | 19.0 | 0.00 | 0.00 | 0.00 | 35 | 1011.6 |
| 20260503220556 | 62 | 258 | 7.0 | 16.0 | 0.00 | 0.00 | 0.00 | 34 | 1011.5 |
| 20260503220451 | 62 | 281 | 7.0 | 16.0 | 0.00 | 0.00 | 0.00 | 34 | 1011.5 |
| 20260503220350 | 62 | 252 | 7.0 | 16.0 | 0.00 | 0.00 | 0.00 | 34 | 1011.5 |
| 20260503220308 | 62 | 273 | 7.0 | 16.0 | 0.00 | 0.00 | 0.00 | 35 | 1011.6 |
| 20260503220301 | 62 | 277 | 7.0 | 16.0 | 0.00 | 0.00 | 0.00 | 34 | 1011.6 |
| 20260503220038 | 62 | 341 | 7.0 | 16.0 | 0.00 | 0.00 | 0.00 | 36 | 1011.5 |
| 20260503215939 | 62 | 277 | 7.0 | 16.0 | 0.00 | 0.00 | 0.00 | 37 | 1011.6 |
| 20260503215832 | 62 | 264 | 7.0 | 16.0 | 0.00 | 0.00 | 0.00 | 35 | 1011.6 |
| 20260503215732 | 62 | 223 | 8.0 | 13.0 | 0.00 | 0.00 | 0.00 | 35 | 1011.5 |
| 20260503215627 | 62 | 228 | 8.0 | 20.0 | 0.00 | 0.00 | 0.00 | 36 | 1011.6 |
| 20260503215526 | 62 | 296 | 9.0 | 20.0 | 0.00 | 0.00 | 0.00 | 36 | 1011.5 |
| 20260503215420 | 62 | 266 | 9.0 | 20.0 | 0.00 | 0.00 | 0.00 | 37 | 1011.5 |
| 20260503215320 | 62 | 269 | 10.0 | 20.0 | 0.00 | 0.00 | 0.00 | 35 | 1011.5 |
| 20260503215214 | 62 | 268 | 10.0 | 20.0 | 0.00 | 0.00 | 0.00 | 36 | 1011.6 |
| 20260503215114 | 62 | 248 | 10.0 | 20.0 | 0.00 | 0.00 | 0.00 | 36 | 1011.6 |
| 20260503215008 | 62 | 245 | 10.0 | 20.0 | 0.00 | 0.00 | 0.00 | 37 | 1011.5 |
| 20260503214908 | 62 | 277 | 10.0 | 20.0 | 0.00 | 0.00 | 0.00 | 35 | 1011.5 |
| 20260503214802 | 62 | 275 | 10.0 | 20.0 | 0.00 | 0.00 | 0.00 | 35 | 1011.5 |
| 20260503214702 | 62 | 243 | 9.0 | 22.0 | 0.00 | 0.00 | 0.00 | 35 | 1011.6 |
| 20260503214557 | 62 | 235 | 9.0 | 22.0 | 0.00 | 0.00 | 0.00 | 34 | 1011.5 |
| 20260503214456 | 62 | 222 | 8.0 | 22.0 | 0.00 | 0.00 | 0.00 | 35 | 1011.5 |
| 20260503214351 | 62 | 259 | 8.0 | 22.0 | 0.00 | 0.00 | 0.00 | 36 | 1011.6 |
| 20260503214251 | 62 | 237 | 8.0 | 22.0 | 0.00 | 0.00 | 0.00 | 36 | 1011.5 |
| 20260503214144 | 62 | 313 | 8.0 | 22.0 | 0.00 | 0.00 | 0.00 | 35 | 1011.5 |
| 20260503214044 | 62 | 276 | 8.0 | 22.0 | 0.00 | 0.00 | 0.00 | 35 | 1011.5 |
| 20260503213938 | 62 | 263 | 8.0 | 22.0 | 0.00 | 0.00 | 0.00 | 35 | 1011.5 |
| 20260503213838 | 62 | 302 | 9.0 | 22.0 | 0.00 | 0.00 | 0.00 | 35 | 1011.5 |
| 20260503213755 | 62 | 238 | 9.0 | 22.0 | 0.00 | 0.00 | 0.00 | 35 | 1011.6 |
| 20260503213748 | 62 | 249 | 9.0 | 22.0 | 0.00 | 0.00 | 0.00 | 35 | 1011.4 |
| 20260503213526 | 62 | 222 | 9.0 | 22.0 | 0.00 | 0.00 | 0.00 | 35 | 1011.5 |
| 20260503213426 | 62 | 225 | 9.0 | 22.0 | 0.00 | 0.00 | 0.00 | 36 | 1011.5 |
| 20260503213320 | 62 | 259 | 10.0 | 22.0 | 0.00 | 0.00 | 0.00 | 39 | 1011.5 |
| 20260503213220 | 62 | 270 | 10.0 | 22.0 | 0.00 | 0.00 | 0.00 | 38 | 1011.4 |
| 20260503213114 | 62 | 243 | 10.0 | 22.0 | 0.00 | 0.00 | 0.00 | 37 | 1011.4 |
| 20260503213014 | 62 | 239 | 11.0 | 22.0 | 0.00 | 0.00 | 0.00 | 36 | 1011.4 |
| 20260503212909 | 62 | 227 | 10.0 | 22.0 | 0.00 | 0.00 | 0.00 | 36 | 1011.5 |
| 20260503212808 | 62 | 306 | 10.0 | 22.0 | 0.00 | 0.00 | 0.00 | 35 | 1011.5 |
| 20260503212724 | 62 | 275 | 8.0 | 21.0 | 0.00 | 0.00 | 0.00 | 38 | 1011.4 |
| 20260503212717 | 62 | 255 | 9.0 | 19.0 | 0.00 | 0.00 | 0.00 | 36 | 1011.4 |
| 20260503212457 | 62 | 296 | 9.0 | 21.0 | 0.00 | 0.00 | 0.00 | 34 | 1011.4 |
| 20260503212356 | 62 | 245 | 9.0 | 21.0 | 0.00 | 0.00 | 0.00 | 36 | 1011.5 |
| 20260503212250 | 62 | 263 | 8.0 | 21.0 | 0.00 | 0.00 | 0.00 | 35 | 1011.5 |
| 20260503212208 | 62 | 286 | 9.0 | 21.0 | 0.00 | 0.00 | 0.00 | 37 | 1011.5 |
| 20260503212201 | 62 | 331 | 8.0 | 21.0 | 0.00 | 0.00 | 0.00 | 35 | 1011.5 |
| 20260503211944 | 62 | 276 | 9.0 | 21.0 | 0.00 | 0.00 | 0.00 | 35 | 1011.5 |
| 20260503211839 | 62 | 223 | 9.0 | 21.0 | 0.00 | 0.00 | 0.00 | 36 | 1011.4 |
| 20260503211738 | 62 | 286 | 10.0 | 21.0 | 0.00 | 0.00 | 0.00 | 37 | 1011.4 |
| 20260503211655 | 62 | 248 | 10.0 | 21.0 | 0.00 | 0.00 | 0.00 | 36 | 1011.4 |
| 20260503211647 | 62 | 269 | 10.0 | 21.0 | 0.00 | 0.00 | 0.00 | 36 | 1011.5 |
| 20260503211426 | 62 | 290 | 10.0 | 21.0 | 0.00 | 0.00 | 0.00 | 36 | 1011.4 |
| 20260503211326 | 62 | 308 | 10.0 | 21.0 | 0.00 | 0.00 | 0.00 | 36 | 1011.4 |
| 20260503211220 | 62 | 198 | 10.0 | 21.0 | 0.00 | 0.00 | 0.00 | 36 | 1011.5 |
| 20260503211119 | 62 | 265 | 10.0 | 21.0 | 0.00 | 0.00 | 0.00 | 36 | 1011.4 |
| 20260503211014 | 62 | 257 | 11.0 | 21.0 | 0.00 | 0.00 | 0.00 | 37 | 1011.5 |
| 20260503210914 | 62 | 275 | 11.0 | 21.0 | 0.00 | 0.00 | 0.00 | 38 | 1011.4 |
| 20260503210808 | 62 | 276 | 11.0 | 21.0 | 0.00 | 0.00 | 0.00 | 35 | 1011.4 |
| 20260503210725 | 62 | 257 | 10.0 | 20.0 | 0.00 | 0.00 | 0.00 | 36 | 1011.4 |
| 20260503210718 | 62 | 263 | 11.0 | 21.0 | 0.00 | 0.00 | 0.00 | 36 | 1011.5 |
| 20260503210503 | 62 | 279 | 10.0 | 20.0 | 0.00 | 0.00 | 0.00 | 34 | 1011.4 |
| 20260503210357 | 62 | 252 | 10.0 | 20.0 | 0.00 | 0.00 | 0.00 | 36 | 1011.4 |
| 20260503210256 | 62 | 275 | 9.0 | 25.0 | 0.00 | 0.00 | 0.00 | 35 | 1011.5 |
| 20260503210151 | 62 | 271 | 9.0 | 25.0 | 0.00 | 0.00 | 0.00 | 37 | 1011.6 |
| 20260503210050 | 62 | 291 | 9.0 | 25.0 | 0.00 | 0.00 | 0.00 | 37 | 1011.6 |
| 20260503205945 | 62 | 318 | 8.0 | 25.0 | 0.00 | 0.00 | 0.00 | 39 | 1011.6 |
| 20260503205844 | 62 | 0 | 8.0 | 25.0 | 0.00 | 0.00 | 0.00 | 39 | 1011.5 |
| 20260503205738 | 61 | 329 | 8.0 | 25.0 | 0.00 | 0.00 | 0.00 | 38 | 1011.5 |
| 20260503205638 | 61 | 271 | 9.0 | 25.0 | 0.00 | 0.00 | 0.00 | 37 | 1011.4 |
| 20260503205532 | 61 | 233 | 9.0 | 25.0 | 0.00 | 0.00 | 0.00 | 36 | 1011.4 |
| 20260503205434 | 61 | 276 | 10.0 | 25.0 | 0.00 | 0.00 | 0.00 | 35 | 1011.5 |
| 20260503205427 | 62 | 248 | 10.0 | 25.0 | 0.00 | 0.00 | 0.00 | 36 | 1011.5 |
| 20260503205423 | 62 | 258 | 11.0 | 25.0 | 0.00 | 0.00 | 0.00 | 35 | 1011.5 |
| 20260503205410 | 61 | 281 | 11.0 | 25.0 | 0.00 | 0.00 | 0.00 | 36 | 1011.5 |
| 20260503205251 | 61 | 281 | 11.0 | 25.0 | 0.00 | 0.00 | 0.00 | 35 | 1011.5 |
| 20260503204915 | 62 | 199 | 10.0 | 25.0 | 0.00 | 0.00 | 0.00 | 37 | 1011.5 |
| 20260503204814 | 61 | 275 | 10.0 | 25.0 | 0.00 | 0.00 | 0.00 | 37 | 1011.5 |
| 20260503204708 | 61 | 260 | 10.0 | 25.0 | 0.00 | 0.00 | 0.00 | 36 | 1011.5 |
| 20260503204608 | 61 | 266 | 10.0 | 25.0 | 0.00 | 0.00 | 0.00 | 35 | 1011.5 |
| 20260503204502 | 61 | 238 | 11.0 | 25.0 | 0.00 | 0.00 | 0.00 | 37 | 1011.5 |
| 20260503204420 | 62 | 275 | 9.0 | 21.0 | 0.00 | 0.00 | 0.00 | 36 | 1011.5 |
| 20260503204412 | 62 | 260 | 10.0 | 25.0 | 0.00 | 0.00 | 0.00 | 37 | 1011.6 |
| 20260503204156 | 62 | 230 | 9.0 | 18.0 | 0.00 | 0.00 | 0.00 | 37 | 1011.5 |
| 20260503204051 | 62 | 306 | 9.0 | 18.0 | 0.00 | 0.00 | 0.00 | 36 | 1011.4 |
| 20260503203949 | 61 | 284 | 9.0 | 19.0 | 0.00 | 0.00 | 0.00 | 37 | 1011.4 |
| 20260503203908 | 61 | 269 | 10.0 | 20.0 | 0.00 | 0.00 | 0.00 | 37 | 1011.4 |
| 20260503203859 | 61 | 269 | 9.0 | 19.0 | 0.00 | 0.00 | 0.00 | 38 | 1011.4 |
| 20260503203701 | 61 | 291 | 9.0 | 20.0 | 0.00 | 0.00 | 0.00 | 38 | 1011.5 |
| 20260503203653 | 61 | 306 | 10.0 | 20.0 | 0.00 | 0.00 | 0.00 | 36 | 1011.5 |
| 20260503203432 | 61 | 309 | 10.0 | 20.0 | 0.00 | 0.00 | 0.00 | 37 | 1011.5 |
| 20260503203332 | 61 | 277 | 10.0 | 20.0 | 0.00 | 0.00 | 0.00 | 37 | 1011.4 |
| 20260503203227 | 61 | 269 | 10.0 | 20.0 | 0.00 | 0.00 | 0.00 | 37 | 1011.4 |
| 20260503203126 | 60 | 259 | 9.0 | 20.0 | 0.00 | 0.00 | 0.00 | 38 | 1011.5 |
| 20260503203021 | 60 | 292 | 8.0 | 20.0 | 0.00 | 0.00 | 0.00 | 36 | 1011.6 |
| 20260503202920 | 60 | 273 | 9.0 | 20.0 | 0.00 | 0.00 | 0.00 | 37 | 1011.5 |
| 20260503202837 | 61 | 255 | 10.0 | 21.0 | 0.00 | 0.00 | 0.00 | 36 | 1011.5 |
| 20260503202830 | 60 | 268 | 9.0 | 20.0 | 0.00 | 0.00 | 0.00 | 36 | 1011.5 |
| 20260503202632 | 61 | 221 | 9.0 | 21.0 | 0.00 | 0.00 | 0.00 | 35 | 1011.5 |
| 20260503202625 | 61 | 234 | 9.0 | 21.0 | 0.00 | 0.00 | 0.00 | 35 | 1011.5 |
| 20260503202402 | 61 | 215 | 10.0 | 21.0 | 0.00 | 0.00 | 0.00 | 36 | 1011.5 |
| 20260503202304 | 61 | 252 | 10.0 | 21.0 | 0.00 | 0.00 | 0.00 | 36 | 1011.6 |
| 20260503202219 | 61 | 303 | 11.0 | 21.0 | 0.00 | 0.00 | 0.00 | 36 | 1011.6 |
| 20260503202211 | 61 | 276 | 11.0 | 21.0 | 0.00 | 0.00 | 0.00 | 37 | 1011.6 |
| 20260503201950 | 61 | 279 | 12.0 | 21.0 | 0.00 | 0.00 | 0.00 | 36 | 1011.7 |
| 20260503201850 | 61 | 282 | 12.0 | 21.0 | 0.00 | 0.00 | 0.00 | 36 | 1011.7 |
| 20260503201745 | 61 | 257 | 11.0 | 20.0 | 0.00 | 0.00 | 0.00 | 36 | 1011.8 |
| 20260503201644 | 61 | 257 | 10.0 | 20.0 | 0.00 | 0.00 | 0.00 | 36 | 1011.7 |
| 20260503201538 | 61 | 288 | 10.0 | 20.0 | 0.00 | 0.00 | 0.00 | 36 | 1011.6 |
| 20260503201438 | 61 | 269 | 9.0 | 20.0 | 0.00 | 0.00 | 0.00 | 36 | 1011.8 |
| 20260503201332 | 61 | 306 | 9.0 | 19.0 | 0.00 | 0.00 | 0.00 | 37 | 1011.7 |
| 20260503201232 | 61 | 193 | 9.0 | 19.0 | 0.00 | 0.00 | 0.00 | 36 | 1011.7 |
| 20260503201127 | 61 | 261 | 9.0 | 18.0 | 0.00 | 0.00 | 0.00 | 37 | 1011.7 |
| 20260503201026 | 61 | 245 | 9.0 | 19.0 | 0.00 | 0.00 | 0.00 | 37 | 1011.6 |
| 20260503200943 | 61 | 324 | 9.0 | 19.0 | 0.00 | 0.00 | 0.00 | 36 | 1011.7 |
| 20260503200936 | 61 | 324 | 9.0 | 19.0 | 0.00 | 0.00 | 0.00 | 38 | 1011.6 |
| 20260503200714 | 61 | 304 | 10.0 | 19.0 | 0.00 | 0.00 | 0.00 | 37 | 1011.7 |
| 20260503200614 | 61 | 293 | 9.0 | 19.0 | 0.00 | 0.00 | 0.00 | 37 | 1011.8 |
| 20260503200509 | 61 | 266 | 9.0 | 19.0 | 0.00 | 0.00 | 0.00 | 37 | 1011.8 |
| 20260503200408 | 61 | 273 | 9.0 | 19.0 | 0.00 | 0.00 | 0.00 | 36 | 1011.7 |
| 20260503200303 | 61 | 311 | 9.0 | 19.0 | 0.00 | 0.00 | 0.00 | 36 | 1011.8 |
| 20260503200202 | 61 | 298 | 9.0 | 19.0 | 0.00 | 0.00 | 0.00 | 39 | 1011.7 |
| 20260503200056 | 61 | 280 | 9.0 | 19.0 | 0.00 | 0.00 | 0.00 | 36 | 1011.9 |
| 20260503200015 | 61 | 309 | 10.0 | 19.0 | 0.00 | 0.00 | 0.00 | 35 | 1011.8 |
| 20260503200008 | 61 | 291 | 9.0 | 19.0 | 0.00 | 0.00 | 0.00 | 36 | 1011.9 |
| 20260503195952 | 61 | 285 | 9.0 | 19.0 | 0.00 | 0.00 | 0.00 | 36 | 1011.8 |
| 20260503195833 | 61 | 277 | 8.0 | 19.0 | 0.00 | 0.00 | 0.00 | 36 | 1011.8 |
| 20260503195719 | 61 | 294 | 10.0 | 19.0 | 0.00 | 0.00 | 0.00 | 34 | 1011.8 |
| 20260503195709 | 61 | 290 | 8.0 | 19.0 | 0.00 | 0.00 | 0.00 | 36 | 1011.8 |
| 20260503195338 | 61 | 244 | 9.0 | 19.0 | 0.00 | 0.00 | 0.00 | 35 | 1011.8 |
| 20260503195255 | 61 | 244 | 8.0 | 23.0 | 0.00 | 0.00 | 0.00 | 38 | 1011.8 |
| 20260503195247 | 61 | 255 | 9.0 | 19.0 | 0.00 | 0.00 | 0.00 | 36 | 1011.8 |
| 20260503195026 | 61 | 287 | 8.0 | 23.0 | 0.00 | 0.00 | 0.00 | 35 | 1011.8 |
| 20260503194926 | 61 | 176 | 8.0 | 23.0 | 0.00 | 0.00 | 0.00 | 34 | 1011.9 |
| 20260503194820 | 62 | 240 | 8.0 | 23.0 | 0.00 | 0.00 | 0.00 | 35 | 1012.0 |
| 20260503194720 | 62 | 248 | 8.0 | 23.0 | 0.00 | 0.00 | 0.00 | 35 | 1011.9 |
| 20260503194615 | 62 | 249 | 8.0 | 23.0 | 0.00 | 0.00 | 0.00 | 37 | 1011.9 |
| 20260503194514 | 62 | 294 | 8.0 | 23.0 | 0.00 | 0.00 | 0.00 | 41 | 1012.0 |
| 20260503194450 | 61 | 257 | 9.0 | 23.0 | 0.00 | 0.00 | 0.00 | 37 | 1012.0 |
| 20260503194444 | 61 | 244 | 9.0 | 23.0 | 0.00 | 0.00 | 0.00 | 40 | 1012.0 |
| 20260503194434 | 61 | 273 | 8.0 | 23.0 | 0.00 | 0.00 | 0.00 | 37 | 1011.9 |
| 20260503194102 | 61 | 271 | 10.0 | 23.0 | 0.00 | 0.00 | 0.00 | 38 | 1011.9 |
| 20260503194018 | 61 | 233 | 11.0 | 23.0 | 0.00 | 0.00 | 0.00 | 39 | 1011.9 |
| 20260503194011 | 61 | 275 | 11.0 | 23.0 | 0.00 | 0.00 | 0.00 | 37 | 1011.9 |
| 20260503193750 | 60 | 273 | 11.0 | 23.0 | 0.00 | 0.00 | 0.00 | 35 | 1012.0 |
| 20260503193650 | 61 | 217 | 12.0 | 23.0 | 0.00 | 0.00 | 0.00 | 35 | 1012.0 |
| 20260503193544 | 61 | 259 | 12.0 | 23.0 | 0.00 | 0.00 | 0.00 | 35 | 1012.1 |
| 20260503193444 | 61 | 230 | 11.0 | 23.0 | 0.00 | 0.00 | 0.00 | 41 | 1012.1 |
| 20260503193339 | 61 | 242 | 11.0 | 23.0 | 0.00 | 0.00 | 0.00 | 41 | 1012.1 |
| 20260503193238 | 60 | 298 | 10.0 | 23.0 | 0.00 | 0.00 | 0.00 | 37 | 1012.0 |
| 20260503193132 | 60 | 279 | 9.0 | 20.0 | 0.00 | 0.00 | 0.00 | 36 | 1011.9 |
| 20260503193050 | 61 | 227 | 10.0 | 20.0 | 0.00 | 0.00 | 0.00 | 34 | 1012.0 |
| 20260503193043 | 61 | 238 | 10.0 | 20.0 | 0.00 | 0.00 | 0.00 | 36 | 1012.1 |
| 20260503192826 | 61 | 243 | 10.0 | 20.0 | 0.00 | 0.00 | 0.00 | 36 | 1012.0 |
| 20260503192720 | 61 | 244 | 9.0 | 20.0 | 0.00 | 0.00 | 0.00 | 37 | 1012.0 |
| 20260503192621 | 61 | 257 | 10.0 | 20.0 | 0.00 | 0.00 | 0.00 | 37 | 1012.1 |
| 20260503192541 | 61 | 279 | 10.0 | 20.0 | 0.00 | 0.00 | 0.00 | 40 | 1012.2 |
| 20260503192536 | 61 | 319 | 10.0 | 20.0 | 0.00 | 0.00 | 0.00 | 37 | 1012.2 |
| 20260503192529 | 61 | 315 | 10.0 | 20.0 | 0.00 | 0.00 | 0.00 | 41 | 1012.1 |
| 20260503192514 | 61 | 309 | 10.0 | 20.0 | 0.00 | 0.00 | 0.00 | 38 | 1012.0 |
| 20260503192239 | 61 | 277 | 11.0 | 20.0 | 0.00 | 0.00 | 0.00 | 38 | 1012.1 |
| 20260503192119 | 61 | 276 | 11.0 | 20.0 | 0.00 | 0.00 | 0.00 | 40 | 1012.3 |
| 20260503191856 | 60 | 242 | 10.0 | 20.0 | 0.00 | 0.00 | 0.00 | 40 | 1012.2 |
| 20260503191813 | 60 | 270 | 11.0 | 20.0 | 0.00 | 0.00 | 0.00 | 36 | 1012.2 |
| 20260503191806 | 60 | 306 | 10.0 | 20.0 | 0.00 | 0.00 | 0.00 | 38 | 1012.2 |
| 20260503191550 | 60 | 281 | 10.0 | 20.0 | 0.00 | 0.00 | 0.00 | 37 | 1012.2 |
| 20260503191444 | 60 | 261 | 10.0 | 18.0 | 0.00 | 0.00 | 0.00 | 39 | 1012.3 |
| 20260503191344 | 60 | 320 | 10.0 | 18.0 | 0.00 | 0.00 | 0.00 | 37 | 1012.3 |
| 20260503191317 | 60 | 279 | 10.0 | 18.0 | 0.00 | 0.00 | 0.00 | 36 | 1012.2 |
| 20260503191311 | 60 | 331 | 10.0 | 18.0 | 0.00 | 0.00 | 0.00 | 36 | 1012.3 |
| 20260503191303 | 60 | 333 | 10.0 | 18.0 | 0.00 | 0.00 | 0.00 | 37 | 1012.2 |
| 20260503190932 | 60 | 254 | 10.0 | 18.0 | 0.00 | 0.00 | 0.00 | 38 | 1012.3 |
| 20260503190826 | 60 | 310 | 9.0 | 20.0 | 0.00 | 0.00 | 0.00 | 39 | 1012.3 |
| 20260503190725 | 60 | 306 | 9.0 | 20.0 | 0.00 | 0.00 | 0.00 | 38 | 1012.3 |
| 20260503190620 | 60 | 312 | 9.0 | 20.0 | 0.00 | 0.00 | 0.00 | 37 | 1012.4 |
| 20260503190520 | 60 | 14 | 9.0 | 20.0 | 0.00 | 0.00 | 0.00 | 38 | 1012.4 |
| 20260503190414 | 60 | 250 | 10.0 | 20.0 | 0.00 | 0.00 | 0.00 | 39 | 1012.5 |
| 20260503190314 | 60 | 281 | 9.0 | 20.0 | 0.00 | 0.00 | 0.00 | 37 | 1012.3 |
| 20260503190209 | 60 | 227 | 9.0 | 20.0 | 0.00 | 0.00 | 0.00 | 37 | 1012.4 |
| 20260503190108 | 59 | 284 | 10.0 | 20.0 | 0.00 | 0.00 | 0.00 | 38 | 1012.4 |
| 20260503190003 | 59 | 306 | 10.0 | 20.0 | 0.00 | 0.00 | 0.00 | 40 | 1012.4 |
| 20260503185902 | 59 | 290 | 10.0 | 20.0 | 0.00 | 0.00 | 0.00 | 36 | 1012.4 |
| 20260503185756 | 59 | 263 | 10.0 | 20.0 | 0.00 | 0.00 | 0.00 | 36 | 1012.4 |
| 20260503185713 | 59 | 240 | 10.0 | 20.0 | 0.00 | 0.00 | 0.00 | 36 | 1012.4 |
| 20260503185706 | 59 | 269 | 10.0 | 20.0 | 0.00 | 0.00 | 0.00 | 37 | 1012.4 |
| 20260503185450 | 59 | 236 | 10.0 | 20.0 | 0.00 | 0.00 | 0.00 | 36 | 1012.5 |
| 20260503185407 | 59 | 268 | 9.0 | 20.0 | 0.00 | 0.00 | 0.00 | 39 | 1012.6 |
| 20260503185400 | 59 | 264 | 10.0 | 20.0 | 0.00 | 0.00 | 0.00 | 39 | 1012.6 |
| 20260503185138 | 59 | 270 | 9.0 | 20.0 | 0.00 | 0.00 | 0.00 | 36 | 1012.7 |
| 20260503185037 | 59 | 215 | 9.0 | 20.0 | 0.00 | 0.00 | 0.00 | 37 | 1012.6 |
| 20260503184932 | 59 | 267 | 10.0 | 20.0 | 0.00 | 0.00 | 0.00 | 37 | 1012.6 |
| 20260503184833 | 59 | 303 | 10.0 | 20.0 | 0.00 | 0.00 | 0.00 | 36 | 1012.7 |
| 20260503184727 | 59 | 267 | 10.0 | 20.0 | 0.00 | 0.00 | 0.00 | 36 | 1012.5 |
| 20260503184643 | 60 | 337 | 10.0 | 20.0 | 0.00 | 0.00 | 0.00 | 38 | 1012.7 |
| 20260503184636 | 60 | 309 | 10.0 | 20.0 | 0.00 | 0.00 | 0.00 | 36 | 1012.5 |
| 20260503184420 | 60 | 269 | 10.0 | 20.0 | 0.00 | 0.00 | 0.00 | 39 | 1012.7 |
| 20260503184338 | 59 | 277 | 11.0 | 20.0 | 0.00 | 0.00 | 0.00 | 40 | 1012.8 |
| 20260503184330 | 59 | 274 | 11.0 | 20.0 | 0.00 | 0.00 | 0.00 | 42 | 1012.7 |
| 20260503184109 | 59 | 311 | 11.0 | 20.0 | 0.00 | 0.00 | 0.00 | 40 | 1012.7 |
| 20260503184008 | 59 | 331 | 10.0 | 20.0 | 0.00 | 0.00 | 0.00 | 38 | 1012.8 |
| 20260503183902 | 59 | 302 | 10.0 | 20.0 | 0.00 | 0.00 | 0.00 | 39 | 1012.8 |
| 20260503183802 | 59 | 247 | 11.0 | 18.0 | 0.00 | 0.00 | 0.00 | 40 | 1012.8 |
| 20260503183656 | 59 | 294 | 11.0 | 18.0 | 0.00 | 0.00 | 0.00 | 38 | 1012.9 |
| 20260503183556 | 59 | 309 | 11.0 | 18.0 | 0.00 | 0.00 | 0.00 | 38 | 1012.8 |
| 20260503183513 | 59 | 268 | 11.0 | 17.0 | 0.00 | 0.00 | 0.00 | 38 | 1012.9 |
| 20260503183505 | 59 | 244 | 11.0 | 17.0 | 0.00 | 0.00 | 0.00 | 37 | 1012.8 |
| 20260503183244 | 58 | 211 | 11.0 | 17.0 | 0.00 | 0.00 | 0.00 | 39 | 1012.8 |
| 20260503183144 | 58 | 263 | 11.0 | 17.0 | 0.00 | 0.00 | 0.00 | 37 | 1012.8 |
| 20260503183039 | 58 | 250 | 11.0 | 17.0 | 0.00 | 0.00 | 0.00 | 39 | 1012.9 |
| 20260503182938 | 58 | 244 | 10.0 | 17.0 | 0.00 | 0.00 | 0.00 | 37 | 1013.0 |
| 20260503182832 | 58 | 259 | 10.0 | 21.0 | 0.00 | 0.00 | 0.00 | 37 | 1012.9 |
| 20260503182731 | 58 | 277 | 10.0 | 21.0 | 0.00 | 0.00 | 0.00 | 39 | 1012.9 |
| 20260503182626 | 58 | 247 | 10.0 | 21.0 | 0.00 | 0.00 | 0.00 | 39 | 1012.8 |
| 20260503182526 | 58 | 280 | 10.0 | 21.0 | 0.00 | 0.00 | 0.00 | 38 | 1012.9 |
| 20260503182426 | 59 | 279 | 12.0 | 21.0 | 0.00 | 0.00 | 0.00 | 37 | 1012.9 |
| 20260503182421 | 58 | 279 | 10.0 | 21.0 | 0.00 | 0.00 | 0.00 | 38 | 1012.9 |
| 20260503182406 | 58 | 292 | 10.0 | 21.0 | 0.00 | 0.00 | 0.00 | 40 | 1012.9 |
| 20260503182245 | 58 | 306 | 10.0 | 21.0 | 0.00 | 0.00 | 0.00 | 37 | 1013.0 |
| 20260503182128 | 59 | 268 | 12.0 | 21.0 | 0.00 | 0.00 | 0.00 | 37 | 1012.9 |
| 20260503182121 | 58 | 316 | 10.0 | 21.0 | 0.00 | 0.00 | 0.00 | 38 | 1012.9 |
| 20260503182106 | 58 | 290 | 11.0 | 21.0 | 0.00 | 0.00 | 0.00 | 38 | 1012.9 |
| 20260503181953 | 58 | 272 | 12.0 | 21.0 | 0.00 | 0.00 | 0.00 | 39 | 1013.0 |
| 20260503181942 | 58 | 246 | 11.0 | 21.0 | 0.00 | 0.00 | 0.00 | 37 | 1012.9 |
| 20260503181458 | 58 | 259 | 12.0 | 21.0 | 0.00 | 0.00 | 0.00 | 39 | 1013.0 |
| 20260503181414 | 58 | 281 | 12.0 | 21.0 | 0.00 | 0.00 | 0.00 | 39 | 1013.0 |
| 20260503181407 | 58 | 302 | 12.0 | 21.0 | 0.00 | 0.00 | 0.00 | 38 | 1013.0 |
| 20260503181143 | 58 | 286 | 11.0 | 22.0 | 0.00 | 0.00 | 0.00 | 40 | 1013.0 |
| 20260503181044 | 58 | 246 | 10.0 | 22.0 | 0.00 | 0.00 | 0.00 | 36 | 1012.7 |
| 20260503180938 | 58 | 213 | 10.0 | 22.0 | 0.00 | 0.00 | 0.00 | 36 | 1012.9 |
| 20260503180838 | 58 | 236 | 9.0 | 22.0 | 0.00 | 0.00 | 0.00 | 37 | 1012.9 |
| 20260503180733 | 58 | 235 | 9.0 | 22.0 | 0.00 | 0.00 | 0.00 | 36 | 1012.9 |
| 20260503180632 | 58 | 259 | 8.0 | 22.0 | 0.00 | 0.00 | 0.00 | 38 | 1012.9 |
| 20260503180527 | 58 | 247 | 8.0 | 22.0 | 0.00 | 0.00 | 0.00 | 39 | 1013.0 |
| 20260503180427 | 58 | 261 | 8.0 | 22.0 | 0.00 | 0.00 | 0.00 | 41 | 1013.0 |
| 20260503180320 | 58 | 292 | 9.0 | 22.0 | 0.00 | 0.00 | 0.00 | 45 | 1012.9 |
| 20260503180220 | 58 | 263 | 10.0 | 22.0 | 0.00 | 0.00 | 0.00 | 44 | 1013.0 |
| 20260503180156 | 57 | 304 | 10.0 | 22.0 | 0.00 | 0.00 | 0.00 | 39 | 1013.0 |
| 20260503180145 | 57 | 295 | 10.0 | 22.0 | 0.00 | 0.00 | 0.00 | 43 | 1013.0 |
| 20260503180024 | 57 | 307 | 10.0 | 22.0 | 0.00 | 0.00 | 0.00 | 39 | 1013.1 |
| 20260503175825 | 57 | 279 | 11.0 | 22.0 | 0.00 | 0.00 | 0.00 | 38 | 1013.0 |
| 20260503175818 | 57 | 248 | 11.0 | 22.0 | 0.00 | 0.00 | 0.00 | 38 | 1013.0 |
| 20260503175620 | 58 | 242 | 12.0 | 22.0 | 0.00 | 0.00 | 0.00 | 37 | 1013.1 |
| 20260503175612 | 57 | 291 | 11.0 | 22.0 | 0.00 | 0.00 | 0.00 | 37 | 1013.1 |
| 20260503175356 | 58 | 255 | 11.0 | 22.0 | 0.00 | 0.00 | 0.00 | 37 | 1013.1 |
| 20260503175251 | 58 | 236 | 11.0 | 22.0 | 0.00 | 0.00 | 0.00 | 40 | 1013.0 |
| 20260503175150 | 58 | 245 | 10.0 | 22.0 | 0.00 | 0.00 | 0.00 | 39 | 1012.9 |
| 20260503175045 | 58 | 284 | 10.0 | 22.0 | 0.00 | 0.00 | 0.00 | 39 | 1013.0 |
| 20260503175001 | 58 | 275 | 10.0 | 22.0 | 0.00 | 0.00 | 0.00 | 40 | 1013.0 |
| 20260503174954 | 57 | 202 | 10.0 | 22.0 | 0.00 | 0.00 | 0.00 | 39 | 1013.0 |
| 20260503174738 | 58 | 248 | 10.0 | 20.0 | 0.00 | 0.00 | 0.00 | 38 | 1013.1 |
| 20260503174633 | 58 | 278 | 9.0 | 19.0 | 0.00 | 0.00 | 0.00 | 38 | 1013.1 |
| 20260503174532 | 58 | 212 | 9.0 | 19.0 | 0.00 | 0.00 | 0.00 | 39 | 1013.1 |
| 20260503174427 | 58 | 223 | 9.0 | 19.0 | 0.00 | 0.00 | 0.00 | 41 | 1013.2 |
| 20260503174326 | 58 | 231 | 9.0 | 19.0 | 0.00 | 0.00 | 0.00 | 45 | 1013.1 |
| 20260503174220 | 57 | 270 | 10.0 | 19.0 | 0.00 | 0.00 | 0.00 | 45 | 1013.2 |
| 20260503174121 | 57 | 277 | 10.0 | 20.0 | 0.00 | 0.00 | 0.00 | 41 | 1013.1 |